<?xml version="1.0" encoding="UTF-8" standalone="no" ?>
<gpx xmlns="http://www.topografix.com/GPX/1/1" xmlns:xsi="http://www.w3.org/2001/XMLSchema-instance" xsi:schemaLocation="http://www.topografix.com/GPX/1/1 http://www.topografix.com/GPX/1/1/gpx.xsd" version="1.1" creator="VisuGPX - https://www.visugpx.com">
  <metadata>
    <name>wodecq adeps</name>
    <desc><![CDATA[17 juillet ]]></desc>
  </metadata>
  <trk>
    <name><![CDATA[2016-07-17 11:34:13]]></name>
    <trkseg>
      <trkpt lat="50.7187" lon="3.75036">
        <ele>22.73</ele>
        <time>2016-07-17T07:42:15Z</time>
      </trkpt>
      <trkpt lat="50.7187" lon="3.75036">
        <ele>22.73</ele>
        <time>2016-07-17T07:42:16Z</time>
      </trkpt>
      <trkpt lat="50.7187" lon="3.75035">
        <ele>31.38</ele>
        <time>2016-07-17T07:42:22Z</time>
      </trkpt>
      <trkpt lat="50.7187" lon="3.75034">
        <ele>31.38</ele>
        <time>2016-07-17T07:42:23Z</time>
      </trkpt>
      <trkpt lat="50.7187" lon="3.7503">
        <ele>29.94</ele>
        <time>2016-07-17T07:42:26Z</time>
      </trkpt>
      <trkpt lat="50.71881" lon="3.74997">
        <ele>30.9</ele>
        <time>2016-07-17T07:42:47Z</time>
      </trkpt>
      <trkpt lat="50.71883" lon="3.74987">
        <ele>28.98</ele>
        <time>2016-07-17T07:42:52Z</time>
      </trkpt>
      <trkpt lat="50.71883" lon="3.74984">
        <ele>30.42</ele>
        <time>2016-07-17T07:42:54Z</time>
      </trkpt>
      <trkpt lat="50.71883" lon="3.74972">
        <ele>28.98</ele>
        <time>2016-07-17T07:43:01Z</time>
      </trkpt>
      <trkpt lat="50.71883" lon="3.74967">
        <ele>30.9</ele>
        <time>2016-07-17T07:43:04Z</time>
      </trkpt>
      <trkpt lat="50.71884" lon="3.7496">
        <ele>27.53</ele>
        <time>2016-07-17T07:43:08Z</time>
      </trkpt>
      <trkpt lat="50.71884" lon="3.74958">
        <ele>29.46</ele>
        <time>2016-07-17T07:43:09Z</time>
      </trkpt>
      <trkpt lat="50.71884" lon="3.74956">
        <ele>29.46</ele>
        <time>2016-07-17T07:43:10Z</time>
      </trkpt>
      <trkpt lat="50.71898" lon="3.74931">
        <ele>30.42</ele>
        <time>2016-07-17T07:43:27Z</time>
      </trkpt>
      <trkpt lat="50.71901" lon="3.74922">
        <ele>28.98</ele>
        <time>2016-07-17T07:43:32Z</time>
      </trkpt>
      <trkpt lat="50.71907" lon="3.74913">
        <ele>30.42</ele>
        <time>2016-07-17T07:43:39Z</time>
      </trkpt>
      <trkpt lat="50.71909" lon="3.74911">
        <ele>28.98</ele>
        <time>2016-07-17T07:43:41Z</time>
      </trkpt>
      <trkpt lat="50.71912" lon="3.74907">
        <ele>30.42</ele>
        <time>2016-07-17T07:43:45Z</time>
      </trkpt>
      <trkpt lat="50.71916" lon="3.74894">
        <ele>28.5</ele>
        <time>2016-07-17T07:43:54Z</time>
      </trkpt>
      <trkpt lat="50.71917" lon="3.7489">
        <ele>29.46</ele>
        <time>2016-07-17T07:43:56Z</time>
      </trkpt>
      <trkpt lat="50.71921" lon="3.74868">
        <ele>29.94</ele>
        <time>2016-07-17T07:44:07Z</time>
      </trkpt>
      <trkpt lat="50.7192" lon="3.74851">
        <ele>28.02</ele>
        <time>2016-07-17T07:44:15Z</time>
      </trkpt>
      <trkpt lat="50.71919" lon="3.74847">
        <ele>30.42</ele>
        <time>2016-07-17T07:44:17Z</time>
      </trkpt>
      <trkpt lat="50.71912" lon="3.74807">
        <ele>28.98</ele>
        <time>2016-07-17T07:44:37Z</time>
      </trkpt>
      <trkpt lat="50.71912" lon="3.74805">
        <ele>28.98</ele>
        <time>2016-07-17T07:44:38Z</time>
      </trkpt>
      <trkpt lat="50.71895" lon="3.7479">
        <ele>30.9</ele>
        <time>2016-07-17T07:44:53Z</time>
      </trkpt>
      <trkpt lat="50.71881" lon="3.74763">
        <ele>29.46</ele>
        <time>2016-07-17T07:45:10Z</time>
      </trkpt>
      <trkpt lat="50.71879" lon="3.74758">
        <ele>30.9</ele>
        <time>2016-07-17T07:45:13Z</time>
      </trkpt>
      <trkpt lat="50.71875" lon="3.74741">
        <ele>30.9</ele>
        <time>2016-07-17T07:45:26Z</time>
      </trkpt>
      <trkpt lat="50.71872" lon="3.74719">
        <ele>30.9</ele>
        <time>2016-07-17T07:45:37Z</time>
      </trkpt>
      <trkpt lat="50.71871" lon="3.74715">
        <ele>30.9</ele>
        <time>2016-07-17T07:45:39Z</time>
      </trkpt>
      <trkpt lat="50.71861" lon="3.74686">
        <ele>31.86</ele>
        <time>2016-07-17T07:45:53Z</time>
      </trkpt>
      <trkpt lat="50.71856" lon="3.74672">
        <ele>31.86</ele>
        <time>2016-07-17T07:46:01Z</time>
      </trkpt>
      <trkpt lat="50.71857" lon="3.74663">
        <ele>32.34</ele>
        <time>2016-07-17T07:46:05Z</time>
      </trkpt>
      <trkpt lat="50.71852" lon="3.74641">
        <ele>32.34</ele>
        <time>2016-07-17T07:46:15Z</time>
      </trkpt>
      <trkpt lat="50.71851" lon="3.74631">
        <ele>32.34</ele>
        <time>2016-07-17T07:46:20Z</time>
      </trkpt>
      <trkpt lat="50.71852" lon="3.74623">
        <ele>32.34</ele>
        <time>2016-07-17T07:46:24Z</time>
      </trkpt>
      <trkpt lat="50.71855" lon="3.74599">
        <ele>32.82</ele>
        <time>2016-07-17T07:46:37Z</time>
      </trkpt>
      <trkpt lat="50.71853" lon="3.74563">
        <ele>32.82</ele>
        <time>2016-07-17T07:46:52Z</time>
      </trkpt>
      <trkpt lat="50.71849" lon="3.74545">
        <ele>33.78</ele>
        <time>2016-07-17T07:47:02Z</time>
      </trkpt>
      <trkpt lat="50.71846" lon="3.74535">
        <ele>33.78</ele>
        <time>2016-07-17T07:47:07Z</time>
      </trkpt>
      <trkpt lat="50.71843" lon="3.74509">
        <ele>35.23</ele>
        <time>2016-07-17T07:47:20Z</time>
      </trkpt>
      <trkpt lat="50.71836" lon="3.74492">
        <ele>35.23</ele>
        <time>2016-07-17T07:47:29Z</time>
      </trkpt>
      <trkpt lat="50.7183" lon="3.74466">
        <ele>35.71</ele>
        <time>2016-07-17T07:47:41Z</time>
      </trkpt>
      <trkpt lat="50.71826" lon="3.74452">
        <ele>36.19</ele>
        <time>2016-07-17T07:47:50Z</time>
      </trkpt>
      <trkpt lat="50.71823" lon="3.74444">
        <ele>36.67</ele>
        <time>2016-07-17T07:47:54Z</time>
      </trkpt>
      <trkpt lat="50.71817" lon="3.74416">
        <ele>37.63</ele>
        <time>2016-07-17T07:48:09Z</time>
      </trkpt>
      <trkpt lat="50.71808" lon="3.74388">
        <ele>39.07</ele>
        <time>2016-07-17T07:48:24Z</time>
      </trkpt>
      <trkpt lat="50.71799" lon="3.74359">
        <ele>40.03</ele>
        <time>2016-07-17T07:48:40Z</time>
      </trkpt>
      <trkpt lat="50.71791" lon="3.74333">
        <ele>40.99</ele>
        <time>2016-07-17T07:48:54Z</time>
      </trkpt>
      <trkpt lat="50.7179" lon="3.74329">
        <ele>40.99</ele>
        <time>2016-07-17T07:48:56Z</time>
      </trkpt>
      <trkpt lat="50.71781" lon="3.74304">
        <ele>41.95</ele>
        <time>2016-07-17T07:49:10Z</time>
      </trkpt>
      <trkpt lat="50.71774" lon="3.74277">
        <ele>41.95</ele>
        <time>2016-07-17T07:49:24Z</time>
      </trkpt>
      <trkpt lat="50.71774" lon="3.74275">
        <ele>41.95</ele>
        <time>2016-07-17T07:49:25Z</time>
      </trkpt>
      <trkpt lat="50.71763" lon="3.74246">
        <ele>41.95</ele>
        <time>2016-07-17T07:49:41Z</time>
      </trkpt>
      <trkpt lat="50.71755" lon="3.7422">
        <ele>42.44</ele>
        <time>2016-07-17T07:49:56Z</time>
      </trkpt>
      <trkpt lat="50.71751" lon="3.74203">
        <ele>42.44</ele>
        <time>2016-07-17T07:50:05Z</time>
      </trkpt>
      <trkpt lat="50.71743" lon="3.74179">
        <ele>42.92</ele>
        <time>2016-07-17T07:50:18Z</time>
      </trkpt>
      <trkpt lat="50.7174" lon="3.74169">
        <ele>42.92</ele>
        <time>2016-07-17T07:50:24Z</time>
      </trkpt>
      <trkpt lat="50.71732" lon="3.74151">
        <ele>43.4</ele>
        <time>2016-07-17T07:50:35Z</time>
      </trkpt>
      <trkpt lat="50.71727" lon="3.74128">
        <ele>41.95</ele>
        <time>2016-07-17T07:50:47Z</time>
      </trkpt>
      <trkpt lat="50.71728" lon="3.74119">
        <ele>41.95</ele>
        <time>2016-07-17T07:50:51Z</time>
      </trkpt>
      <trkpt lat="50.71722" lon="3.74101">
        <ele>41.47</ele>
        <time>2016-07-17T07:51:01Z</time>
      </trkpt>
      <trkpt lat="50.71721" lon="3.74093">
        <ele>41.47</ele>
        <time>2016-07-17T07:51:05Z</time>
      </trkpt>
      <trkpt lat="50.71714" lon="3.74077">
        <ele>42.92</ele>
        <time>2016-07-17T07:51:13Z</time>
      </trkpt>
      <trkpt lat="50.717" lon="3.74052">
        <ele>43.88</ele>
        <time>2016-07-17T07:51:30Z</time>
      </trkpt>
      <trkpt lat="50.71686" lon="3.74026">
        <ele>44.84</ele>
        <time>2016-07-17T07:51:44Z</time>
      </trkpt>
      <trkpt lat="50.71675" lon="3.74005">
        <ele>44.84</ele>
        <time>2016-07-17T07:51:59Z</time>
      </trkpt>
      <trkpt lat="50.71661" lon="3.73981">
        <ele>44.84</ele>
        <time>2016-07-17T07:52:13Z</time>
      </trkpt>
      <trkpt lat="50.71643" lon="3.73945">
        <ele>45.32</ele>
        <time>2016-07-17T07:52:35Z</time>
      </trkpt>
      <trkpt lat="50.71629" lon="3.73903">
        <ele>44.84</ele>
        <time>2016-07-17T07:52:56Z</time>
      </trkpt>
      <trkpt lat="50.71619" lon="3.73879">
        <ele>43.88</ele>
        <time>2016-07-17T07:53:09Z</time>
      </trkpt>
      <trkpt lat="50.71609" lon="3.73841">
        <ele>43.88</ele>
        <time>2016-07-17T07:53:29Z</time>
      </trkpt>
      <trkpt lat="50.71601" lon="3.73804">
        <ele>43.4</ele>
        <time>2016-07-17T07:53:46Z</time>
      </trkpt>
      <trkpt lat="50.71591" lon="3.73767">
        <ele>42.92</ele>
        <time>2016-07-17T07:54:06Z</time>
      </trkpt>
      <trkpt lat="50.71584" lon="3.73727">
        <ele>42.44</ele>
        <time>2016-07-17T07:54:24Z</time>
      </trkpt>
      <trkpt lat="50.71574" lon="3.73694">
        <ele>42.44</ele>
        <time>2016-07-17T07:54:42Z</time>
      </trkpt>
      <trkpt lat="50.71567" lon="3.73656">
        <ele>41.95</ele>
        <time>2016-07-17T07:54:59Z</time>
      </trkpt>
      <trkpt lat="50.71566" lon="3.73654">
        <ele>41.95</ele>
        <time>2016-07-17T07:55:00Z</time>
      </trkpt>
      <trkpt lat="50.71566" lon="3.73652">
        <ele>41.95</ele>
        <time>2016-07-17T07:55:01Z</time>
      </trkpt>
      <trkpt lat="50.71565" lon="3.7365">
        <ele>41.95</ele>
        <time>2016-07-17T07:55:02Z</time>
      </trkpt>
      <trkpt lat="50.71565" lon="3.73648">
        <ele>41.95</ele>
        <time>2016-07-17T07:55:03Z</time>
      </trkpt>
      <trkpt lat="50.71564" lon="3.73647">
        <ele>41.95</ele>
        <time>2016-07-17T07:55:04Z</time>
      </trkpt>
      <trkpt lat="50.71556" lon="3.73612">
        <ele>41.95</ele>
        <time>2016-07-17T07:55:23Z</time>
      </trkpt>
      <trkpt lat="50.71551" lon="3.73573">
        <ele>41.47</ele>
        <time>2016-07-17T07:55:41Z</time>
      </trkpt>
      <trkpt lat="50.71548" lon="3.73542">
        <ele>41.47</ele>
        <time>2016-07-17T07:55:56Z</time>
      </trkpt>
      <trkpt lat="50.71544" lon="3.73531">
        <ele>41.47</ele>
        <time>2016-07-17T07:56:01Z</time>
      </trkpt>
      <trkpt lat="50.71543" lon="3.73531">
        <ele>41.47</ele>
        <time>2016-07-17T07:56:02Z</time>
      </trkpt>
      <trkpt lat="50.71542" lon="3.73532">
        <ele>40.99</ele>
        <time>2016-07-17T07:56:03Z</time>
      </trkpt>
      <trkpt lat="50.71541" lon="3.73533">
        <ele>40.99</ele>
        <time>2016-07-17T07:56:04Z</time>
      </trkpt>
      <trkpt lat="50.7154" lon="3.73534">
        <ele>40.99</ele>
        <time>2016-07-17T07:56:05Z</time>
      </trkpt>
      <trkpt lat="50.71516" lon="3.73533">
        <ele>39.55</ele>
        <time>2016-07-17T07:56:23Z</time>
      </trkpt>
      <trkpt lat="50.715" lon="3.73524">
        <ele>38.59</ele>
        <time>2016-07-17T07:56:37Z</time>
      </trkpt>
      <trkpt lat="50.7148" lon="3.73511">
        <ele>36.19</ele>
        <time>2016-07-17T07:56:54Z</time>
      </trkpt>
      <trkpt lat="50.71459" lon="3.73495">
        <ele>35.23</ele>
        <time>2016-07-17T07:57:08Z</time>
      </trkpt>
      <trkpt lat="50.71437" lon="3.73478">
        <ele>34.26</ele>
        <time>2016-07-17T07:57:27Z</time>
      </trkpt>
      <trkpt lat="50.71423" lon="3.73458">
        <ele>33.3</ele>
        <time>2016-07-17T07:57:41Z</time>
      </trkpt>
      <trkpt lat="50.71419" lon="3.73454">
        <ele>33.3</ele>
        <time>2016-07-17T07:57:46Z</time>
      </trkpt>
      <trkpt lat="50.71401" lon="3.73443">
        <ele>32.82</ele>
        <time>2016-07-17T07:58:01Z</time>
      </trkpt>
      <trkpt lat="50.71384" lon="3.73433">
        <ele>32.34</ele>
        <time>2016-07-17T07:58:16Z</time>
      </trkpt>
      <trkpt lat="50.71363" lon="3.7342">
        <ele>31.86</ele>
        <time>2016-07-17T07:58:33Z</time>
      </trkpt>
      <trkpt lat="50.71346" lon="3.73407">
        <ele>31.86</ele>
        <time>2016-07-17T07:58:45Z</time>
      </trkpt>
      <trkpt lat="50.71344" lon="3.73406">
        <ele>31.86</ele>
        <time>2016-07-17T07:58:46Z</time>
      </trkpt>
      <trkpt lat="50.71321" lon="3.73398">
        <ele>31.86</ele>
        <time>2016-07-17T07:59:01Z</time>
      </trkpt>
      <trkpt lat="50.71314" lon="3.73397">
        <ele>31.86</ele>
        <time>2016-07-17T07:59:07Z</time>
      </trkpt>
      <trkpt lat="50.71288" lon="3.73377">
        <ele>31.86</ele>
        <time>2016-07-17T07:59:27Z</time>
      </trkpt>
      <trkpt lat="50.71265" lon="3.73356">
        <ele>31.86</ele>
        <time>2016-07-17T07:59:46Z</time>
      </trkpt>
      <trkpt lat="50.71243" lon="3.73339">
        <ele>31.86</ele>
        <time>2016-07-17T08:00:04Z</time>
      </trkpt>
      <trkpt lat="50.71241" lon="3.73337">
        <ele>32.82</ele>
        <time>2016-07-17T08:00:06Z</time>
      </trkpt>
      <trkpt lat="50.7122" lon="3.73317">
        <ele>33.78</ele>
        <time>2016-07-17T08:00:23Z</time>
      </trkpt>
      <trkpt lat="50.71207" lon="3.73299">
        <ele>33.78</ele>
        <time>2016-07-17T08:00:38Z</time>
      </trkpt>
      <trkpt lat="50.71206" lon="3.73298">
        <ele>33.78</ele>
        <time>2016-07-17T08:00:39Z</time>
      </trkpt>
      <trkpt lat="50.71204" lon="3.73296">
        <ele>33.78</ele>
        <time>2016-07-17T08:00:40Z</time>
      </trkpt>
      <trkpt lat="50.71203" lon="3.73294">
        <ele>33.78</ele>
        <time>2016-07-17T08:00:41Z</time>
      </trkpt>
      <trkpt lat="50.71202" lon="3.73292">
        <ele>33.78</ele>
        <time>2016-07-17T08:00:42Z</time>
      </trkpt>
      <trkpt lat="50.712" lon="3.7329">
        <ele>33.78</ele>
        <time>2016-07-17T08:00:43Z</time>
      </trkpt>
      <trkpt lat="50.71199" lon="3.73289">
        <ele>33.78</ele>
        <time>2016-07-17T08:00:44Z</time>
      </trkpt>
      <trkpt lat="50.71198" lon="3.73288">
        <ele>33.78</ele>
        <time>2016-07-17T08:00:45Z</time>
      </trkpt>
      <trkpt lat="50.71196" lon="3.73286">
        <ele>33.78</ele>
        <time>2016-07-17T08:00:46Z</time>
      </trkpt>
      <trkpt lat="50.71195" lon="3.73285">
        <ele>33.78</ele>
        <time>2016-07-17T08:00:47Z</time>
      </trkpt>
      <trkpt lat="50.71194" lon="3.73284">
        <ele>33.78</ele>
        <time>2016-07-17T08:00:48Z</time>
      </trkpt>
      <trkpt lat="50.71178" lon="3.73266">
        <ele>34.74</ele>
        <time>2016-07-17T08:01:04Z</time>
      </trkpt>
      <trkpt lat="50.71177" lon="3.73264">
        <ele>34.74</ele>
        <time>2016-07-17T08:01:05Z</time>
      </trkpt>
      <trkpt lat="50.71176" lon="3.73263">
        <ele>34.74</ele>
        <time>2016-07-17T08:01:06Z</time>
      </trkpt>
      <trkpt lat="50.71158" lon="3.73238">
        <ele>34.74</ele>
        <time>2016-07-17T08:01:23Z</time>
      </trkpt>
      <trkpt lat="50.71141" lon="3.73208">
        <ele>34.74</ele>
        <time>2016-07-17T08:01:40Z</time>
      </trkpt>
      <trkpt lat="50.71126" lon="3.73186">
        <ele>34.74</ele>
        <time>2016-07-17T08:01:56Z</time>
      </trkpt>
      <trkpt lat="50.7111" lon="3.73163">
        <ele>35.23</ele>
        <time>2016-07-17T08:02:12Z</time>
      </trkpt>
      <trkpt lat="50.71104" lon="3.73162">
        <ele>35.23</ele>
        <time>2016-07-17T08:02:17Z</time>
      </trkpt>
      <trkpt lat="50.71103" lon="3.73162">
        <ele>35.23</ele>
        <time>2016-07-17T08:02:18Z</time>
      </trkpt>
      <trkpt lat="50.71091" lon="3.73163">
        <ele>35.23</ele>
        <time>2016-07-17T08:02:26Z</time>
      </trkpt>
      <trkpt lat="50.7109" lon="3.73163">
        <ele>35.23</ele>
        <time>2016-07-17T08:02:27Z</time>
      </trkpt>
      <trkpt lat="50.71088" lon="3.73163">
        <ele>35.23</ele>
        <time>2016-07-17T08:02:28Z</time>
      </trkpt>
      <trkpt lat="50.71087" lon="3.73163">
        <ele>35.71</ele>
        <time>2016-07-17T08:02:29Z</time>
      </trkpt>
      <trkpt lat="50.71085" lon="3.73163">
        <ele>35.71</ele>
        <time>2016-07-17T08:02:30Z</time>
      </trkpt>
      <trkpt lat="50.71084" lon="3.73164">
        <ele>35.71</ele>
        <time>2016-07-17T08:02:31Z</time>
      </trkpt>
      <trkpt lat="50.71082" lon="3.73163">
        <ele>35.71</ele>
        <time>2016-07-17T08:02:32Z</time>
      </trkpt>
      <trkpt lat="50.71074" lon="3.73172">
        <ele>35.71</ele>
        <time>2016-07-17T08:02:42Z</time>
      </trkpt>
      <trkpt lat="50.71056" lon="3.73197">
        <ele>37.15</ele>
        <time>2016-07-17T08:02:59Z</time>
      </trkpt>
      <trkpt lat="50.71054" lon="3.73197">
        <ele>37.63</ele>
        <time>2016-07-17T08:03:00Z</time>
      </trkpt>
      <trkpt lat="50.71053" lon="3.73197">
        <ele>37.63</ele>
        <time>2016-07-17T08:03:01Z</time>
      </trkpt>
      <trkpt lat="50.71052" lon="3.73198">
        <ele>37.63</ele>
        <time>2016-07-17T08:03:02Z</time>
      </trkpt>
      <trkpt lat="50.7105" lon="3.73199">
        <ele>37.63</ele>
        <time>2016-07-17T08:03:03Z</time>
      </trkpt>
      <trkpt lat="50.71049" lon="3.73199">
        <ele>37.63</ele>
        <time>2016-07-17T08:03:04Z</time>
      </trkpt>
      <trkpt lat="50.71047" lon="3.73199">
        <ele>37.63</ele>
        <time>2016-07-17T08:03:05Z</time>
      </trkpt>
      <trkpt lat="50.71046" lon="3.73199">
        <ele>37.63</ele>
        <time>2016-07-17T08:03:06Z</time>
      </trkpt>
      <trkpt lat="50.71025" lon="3.7319">
        <ele>39.07</ele>
        <time>2016-07-17T08:03:22Z</time>
      </trkpt>
      <trkpt lat="50.71002" lon="3.73183">
        <ele>40.51</ele>
        <time>2016-07-17T08:03:39Z</time>
      </trkpt>
      <trkpt lat="50.70999" lon="3.73184">
        <ele>40.51</ele>
        <time>2016-07-17T08:03:42Z</time>
      </trkpt>
      <trkpt lat="50.70998" lon="3.73184">
        <ele>40.51</ele>
        <time>2016-07-17T08:03:43Z</time>
      </trkpt>
      <trkpt lat="50.70996" lon="3.73185">
        <ele>40.51</ele>
        <time>2016-07-17T08:03:44Z</time>
      </trkpt>
      <trkpt lat="50.70979" lon="3.73191">
        <ele>41.47</ele>
        <time>2016-07-17T08:03:58Z</time>
      </trkpt>
      <trkpt lat="50.70959" lon="3.73194">
        <ele>42.92</ele>
        <time>2016-07-17T08:04:13Z</time>
      </trkpt>
      <trkpt lat="50.70952" lon="3.73196">
        <ele>42.92</ele>
        <time>2016-07-17T08:04:19Z</time>
      </trkpt>
      <trkpt lat="50.70931" lon="3.73202">
        <ele>44.84</ele>
        <time>2016-07-17T08:04:35Z</time>
      </trkpt>
      <trkpt lat="50.70916" lon="3.73207">
        <ele>44.84</ele>
        <time>2016-07-17T08:04:48Z</time>
      </trkpt>
      <trkpt lat="50.70896" lon="3.73217">
        <ele>46.28</ele>
        <time>2016-07-17T08:05:05Z</time>
      </trkpt>
      <trkpt lat="50.70882" lon="3.73226">
        <ele>47.24</ele>
        <time>2016-07-17T08:05:20Z</time>
      </trkpt>
      <trkpt lat="50.70882" lon="3.73228">
        <ele>47.24</ele>
        <time>2016-07-17T08:05:21Z</time>
      </trkpt>
      <trkpt lat="50.7089" lon="3.73251">
        <ele>47.24</ele>
        <time>2016-07-17T08:05:34Z</time>
      </trkpt>
      <trkpt lat="50.70902" lon="3.73276">
        <ele>47.24</ele>
        <time>2016-07-17T08:05:50Z</time>
      </trkpt>
      <trkpt lat="50.70905" lon="3.73285">
        <ele>47.24</ele>
        <time>2016-07-17T08:05:55Z</time>
      </trkpt>
      <trkpt lat="50.70915" lon="3.7331">
        <ele>47.24</ele>
        <time>2016-07-17T08:06:10Z</time>
      </trkpt>
      <trkpt lat="50.70924" lon="3.73336">
        <ele>46.28</ele>
        <time>2016-07-17T08:06:24Z</time>
      </trkpt>
      <trkpt lat="50.7093" lon="3.73363">
        <ele>45.8</ele>
        <time>2016-07-17T08:06:38Z</time>
      </trkpt>
      <trkpt lat="50.70928" lon="3.73391">
        <ele>45.32</ele>
        <time>2016-07-17T08:06:52Z</time>
      </trkpt>
      <trkpt lat="50.70924" lon="3.73419">
        <ele>45.32</ele>
        <time>2016-07-17T08:07:06Z</time>
      </trkpt>
      <trkpt lat="50.7092" lon="3.73445">
        <ele>45.32</ele>
        <time>2016-07-17T08:07:19Z</time>
      </trkpt>
      <trkpt lat="50.70919" lon="3.73453">
        <ele>45.32</ele>
        <time>2016-07-17T08:07:24Z</time>
      </trkpt>
      <trkpt lat="50.70919" lon="3.73455">
        <ele>45.32</ele>
        <time>2016-07-17T08:07:25Z</time>
      </trkpt>
      <trkpt lat="50.70913" lon="3.73484">
        <ele>45.32</ele>
        <time>2016-07-17T08:07:40Z</time>
      </trkpt>
      <trkpt lat="50.70908" lon="3.73508">
        <ele>45.32</ele>
        <time>2016-07-17T08:07:54Z</time>
      </trkpt>
      <trkpt lat="50.70906" lon="3.73514">
        <ele>45.32</ele>
        <time>2016-07-17T08:07:57Z</time>
      </trkpt>
      <trkpt lat="50.70892" lon="3.73516">
        <ele>45.32</ele>
        <time>2016-07-17T08:08:09Z</time>
      </trkpt>
      <trkpt lat="50.70877" lon="3.73501">
        <ele>45.32</ele>
        <time>2016-07-17T08:08:23Z</time>
      </trkpt>
      <trkpt lat="50.70854" lon="3.73483">
        <ele>46.28</ele>
        <time>2016-07-17T08:08:41Z</time>
      </trkpt>
      <trkpt lat="50.70853" lon="3.73482">
        <ele>46.28</ele>
        <time>2016-07-17T08:08:42Z</time>
      </trkpt>
      <trkpt lat="50.70833" lon="3.73465">
        <ele>46.76</ele>
        <time>2016-07-17T08:08:59Z</time>
      </trkpt>
      <trkpt lat="50.70809" lon="3.73451">
        <ele>47.24</ele>
        <time>2016-07-17T08:09:17Z</time>
      </trkpt>
      <trkpt lat="50.70782" lon="3.73441">
        <ele>47.24</ele>
        <time>2016-07-17T08:09:37Z</time>
      </trkpt>
      <trkpt lat="50.70757" lon="3.73436">
        <ele>47.24</ele>
        <time>2016-07-17T08:09:56Z</time>
      </trkpt>
      <trkpt lat="50.70729" lon="3.73424">
        <ele>47.72</ele>
        <time>2016-07-17T08:10:15Z</time>
      </trkpt>
      <trkpt lat="50.70713" lon="3.73418">
        <ele>47.72</ele>
        <time>2016-07-17T08:10:30Z</time>
      </trkpt>
      <trkpt lat="50.70691" lon="3.73411">
        <ele>47.72</ele>
        <time>2016-07-17T08:10:46Z</time>
      </trkpt>
      <trkpt lat="50.70662" lon="3.73406">
        <ele>47.72</ele>
        <time>2016-07-17T08:11:06Z</time>
      </trkpt>
      <trkpt lat="50.70636" lon="3.73401">
        <ele>47.72</ele>
        <time>2016-07-17T08:11:26Z</time>
      </trkpt>
      <trkpt lat="50.70612" lon="3.73396">
        <ele>47.72</ele>
        <time>2016-07-17T08:11:44Z</time>
      </trkpt>
      <trkpt lat="50.70585" lon="3.73391">
        <ele>47.72</ele>
        <time>2016-07-17T08:12:03Z</time>
      </trkpt>
      <trkpt lat="50.70564" lon="3.73383">
        <ele>45.8</ele>
        <time>2016-07-17T08:12:20Z</time>
      </trkpt>
      <trkpt lat="50.70538" lon="3.73376">
        <ele>45.32</ele>
        <time>2016-07-17T08:12:38Z</time>
      </trkpt>
      <trkpt lat="50.70515" lon="3.73364">
        <ele>44.36</ele>
        <time>2016-07-17T08:12:55Z</time>
      </trkpt>
      <trkpt lat="50.70508" lon="3.7336">
        <ele>44.36</ele>
        <time>2016-07-17T08:13:01Z</time>
      </trkpt>
      <trkpt lat="50.70506" lon="3.73361">
        <ele>43.88</ele>
        <time>2016-07-17T08:13:02Z</time>
      </trkpt>
      <trkpt lat="50.70505" lon="3.73361">
        <ele>43.88</ele>
        <time>2016-07-17T08:13:03Z</time>
      </trkpt>
      <trkpt lat="50.7049" lon="3.73362">
        <ele>42.92</ele>
        <time>2016-07-17T08:13:17Z</time>
      </trkpt>
      <trkpt lat="50.70488" lon="3.73362">
        <ele>42.92</ele>
        <time>2016-07-17T08:13:18Z</time>
      </trkpt>
      <trkpt lat="50.70486" lon="3.73363">
        <ele>42.92</ele>
        <time>2016-07-17T08:13:19Z</time>
      </trkpt>
      <trkpt lat="50.70485" lon="3.73362">
        <ele>42.92</ele>
        <time>2016-07-17T08:13:20Z</time>
      </trkpt>
      <trkpt lat="50.70483" lon="3.73362">
        <ele>42.92</ele>
        <time>2016-07-17T08:13:21Z</time>
      </trkpt>
      <trkpt lat="50.70482" lon="3.73361">
        <ele>42.92</ele>
        <time>2016-07-17T08:13:22Z</time>
      </trkpt>
      <trkpt lat="50.7048" lon="3.7336">
        <ele>42.92</ele>
        <time>2016-07-17T08:13:23Z</time>
      </trkpt>
      <trkpt lat="50.70463" lon="3.73337">
        <ele>42.92</ele>
        <time>2016-07-17T08:13:38Z</time>
      </trkpt>
      <trkpt lat="50.70462" lon="3.73331">
        <ele>42.92</ele>
        <time>2016-07-17T08:13:41Z</time>
      </trkpt>
      <trkpt lat="50.70461" lon="3.7333">
        <ele>42.92</ele>
        <time>2016-07-17T08:13:42Z</time>
      </trkpt>
      <trkpt lat="50.7046" lon="3.73328">
        <ele>42.92</ele>
        <time>2016-07-17T08:13:43Z</time>
      </trkpt>
      <trkpt lat="50.70459" lon="3.73327">
        <ele>42.92</ele>
        <time>2016-07-17T08:13:44Z</time>
      </trkpt>
      <trkpt lat="50.70458" lon="3.73326">
        <ele>42.92</ele>
        <time>2016-07-17T08:13:45Z</time>
      </trkpt>
      <trkpt lat="50.70456" lon="3.73325">
        <ele>42.92</ele>
        <time>2016-07-17T08:13:46Z</time>
      </trkpt>
      <trkpt lat="50.70442" lon="3.7331">
        <ele>41.95</ele>
        <time>2016-07-17T08:14:01Z</time>
      </trkpt>
      <trkpt lat="50.70424" lon="3.73282">
        <ele>41.47</ele>
        <time>2016-07-17T08:14:18Z</time>
      </trkpt>
      <trkpt lat="50.70424" lon="3.7328">
        <ele>41.47</ele>
        <time>2016-07-17T08:14:19Z</time>
      </trkpt>
      <trkpt lat="50.70424" lon="3.73277">
        <ele>41.47</ele>
        <time>2016-07-17T08:14:20Z</time>
      </trkpt>
      <trkpt lat="50.70425" lon="3.73275">
        <ele>41.47</ele>
        <time>2016-07-17T08:14:21Z</time>
      </trkpt>
      <trkpt lat="50.70426" lon="3.73273">
        <ele>41.47</ele>
        <time>2016-07-17T08:14:22Z</time>
      </trkpt>
      <trkpt lat="50.70427" lon="3.73271">
        <ele>41.47</ele>
        <time>2016-07-17T08:14:23Z</time>
      </trkpt>
      <trkpt lat="50.70428" lon="3.73269">
        <ele>41.47</ele>
        <time>2016-07-17T08:14:24Z</time>
      </trkpt>
      <trkpt lat="50.70429" lon="3.73267">
        <ele>41.47</ele>
        <time>2016-07-17T08:14:25Z</time>
      </trkpt>
      <trkpt lat="50.7043" lon="3.73265">
        <ele>41.47</ele>
        <time>2016-07-17T08:14:26Z</time>
      </trkpt>
      <trkpt lat="50.70431" lon="3.73263">
        <ele>41.47</ele>
        <time>2016-07-17T08:14:27Z</time>
      </trkpt>
      <trkpt lat="50.70445" lon="3.73241">
        <ele>41.95</ele>
        <time>2016-07-17T08:14:42Z</time>
      </trkpt>
      <trkpt lat="50.70458" lon="3.73224">
        <ele>41.95</ele>
        <time>2016-07-17T08:14:55Z</time>
      </trkpt>
      <trkpt lat="50.70474" lon="3.73198">
        <ele>41.95</ele>
        <time>2016-07-17T08:15:11Z</time>
      </trkpt>
      <trkpt lat="50.70482" lon="3.73186">
        <ele>42.92</ele>
        <time>2016-07-17T08:15:20Z</time>
      </trkpt>
      <trkpt lat="50.70482" lon="3.73185">
        <ele>42.92</ele>
        <time>2016-07-17T08:15:21Z</time>
      </trkpt>
      <trkpt lat="50.70485" lon="3.73179">
        <ele>42.92</ele>
        <time>2016-07-17T08:15:24Z</time>
      </trkpt>
      <trkpt lat="50.70486" lon="3.73177">
        <ele>42.92</ele>
        <time>2016-07-17T08:15:25Z</time>
      </trkpt>
      <trkpt lat="50.70494" lon="3.73157">
        <ele>42.92</ele>
        <time>2016-07-17T08:15:36Z</time>
      </trkpt>
      <trkpt lat="50.70494" lon="3.73155">
        <ele>42.92</ele>
        <time>2016-07-17T08:15:37Z</time>
      </trkpt>
      <trkpt lat="50.70495" lon="3.73154">
        <ele>42.92</ele>
        <time>2016-07-17T08:15:38Z</time>
      </trkpt>
      <trkpt lat="50.70495" lon="3.73152">
        <ele>42.92</ele>
        <time>2016-07-17T08:15:39Z</time>
      </trkpt>
      <trkpt lat="50.70495" lon="3.7315">
        <ele>43.4</ele>
        <time>2016-07-17T08:15:40Z</time>
      </trkpt>
      <trkpt lat="50.70506" lon="3.73117">
        <ele>43.4</ele>
        <time>2016-07-17T08:15:56Z</time>
      </trkpt>
      <trkpt lat="50.70516" lon="3.73088">
        <ele>44.36</ele>
        <time>2016-07-17T08:16:12Z</time>
      </trkpt>
      <trkpt lat="50.70526" lon="3.73062">
        <ele>44.84</ele>
        <time>2016-07-17T08:16:27Z</time>
      </trkpt>
      <trkpt lat="50.70537" lon="3.7303">
        <ele>45.8</ele>
        <time>2016-07-17T08:16:44Z</time>
      </trkpt>
      <trkpt lat="50.70548" lon="3.72995">
        <ele>46.76</ele>
        <time>2016-07-17T08:17:02Z</time>
      </trkpt>
      <trkpt lat="50.70556" lon="3.72966">
        <ele>47.24</ele>
        <time>2016-07-17T08:17:17Z</time>
      </trkpt>
      <trkpt lat="50.70559" lon="3.72957">
        <ele>47.24</ele>
        <time>2016-07-17T08:17:22Z</time>
      </trkpt>
      <trkpt lat="50.70561" lon="3.72954">
        <ele>47.24</ele>
        <time>2016-07-17T08:17:24Z</time>
      </trkpt>
      <trkpt lat="50.70561" lon="3.72952">
        <ele>47.24</ele>
        <time>2016-07-17T08:17:25Z</time>
      </trkpt>
      <trkpt lat="50.70562" lon="3.7295">
        <ele>47.24</ele>
        <time>2016-07-17T08:17:26Z</time>
      </trkpt>
      <trkpt lat="50.70563" lon="3.72948">
        <ele>47.24</ele>
        <time>2016-07-17T08:17:27Z</time>
      </trkpt>
      <trkpt lat="50.70563" lon="3.72946">
        <ele>47.24</ele>
        <time>2016-07-17T08:17:28Z</time>
      </trkpt>
      <trkpt lat="50.70575" lon="3.72921">
        <ele>47.72</ele>
        <time>2016-07-17T08:17:43Z</time>
      </trkpt>
      <trkpt lat="50.70575" lon="3.72919">
        <ele>47.72</ele>
        <time>2016-07-17T08:17:44Z</time>
      </trkpt>
      <trkpt lat="50.70576" lon="3.72917">
        <ele>47.72</ele>
        <time>2016-07-17T08:17:45Z</time>
      </trkpt>
      <trkpt lat="50.70576" lon="3.72915">
        <ele>47.72</ele>
        <time>2016-07-17T08:17:46Z</time>
      </trkpt>
      <trkpt lat="50.70577" lon="3.72914">
        <ele>47.72</ele>
        <time>2016-07-17T08:17:47Z</time>
      </trkpt>
      <trkpt lat="50.70578" lon="3.72912">
        <ele>47.72</ele>
        <time>2016-07-17T08:17:48Z</time>
      </trkpt>
      <trkpt lat="50.70579" lon="3.7291">
        <ele>47.72</ele>
        <time>2016-07-17T08:17:49Z</time>
      </trkpt>
      <trkpt lat="50.70579" lon="3.72908">
        <ele>47.72</ele>
        <time>2016-07-17T08:17:50Z</time>
      </trkpt>
      <trkpt lat="50.7058" lon="3.72906">
        <ele>47.72</ele>
        <time>2016-07-17T08:17:51Z</time>
      </trkpt>
      <trkpt lat="50.70592" lon="3.72882">
        <ele>49.16</ele>
        <time>2016-07-17T08:18:06Z</time>
      </trkpt>
      <trkpt lat="50.70603" lon="3.72851">
        <ele>49.16</ele>
        <time>2016-07-17T08:18:21Z</time>
      </trkpt>
      <trkpt lat="50.70604" lon="3.72817">
        <ele>50.13</ele>
        <time>2016-07-17T08:18:38Z</time>
      </trkpt>
      <trkpt lat="50.70601" lon="3.72783">
        <ele>50.61</ele>
        <time>2016-07-17T08:18:55Z</time>
      </trkpt>
      <trkpt lat="50.70596" lon="3.72745">
        <ele>51.09</ele>
        <time>2016-07-17T08:19:13Z</time>
      </trkpt>
      <trkpt lat="50.70594" lon="3.7273">
        <ele>51.57</ele>
        <time>2016-07-17T08:19:20Z</time>
      </trkpt>
      <trkpt lat="50.70588" lon="3.72698">
        <ele>52.53</ele>
        <time>2016-07-17T08:19:36Z</time>
      </trkpt>
      <trkpt lat="50.70583" lon="3.72665">
        <ele>53.01</ele>
        <time>2016-07-17T08:19:53Z</time>
      </trkpt>
      <trkpt lat="50.70583" lon="3.72661">
        <ele>53.01</ele>
        <time>2016-07-17T08:19:55Z</time>
      </trkpt>
      <trkpt lat="50.70583" lon="3.72659">
        <ele>53.49</ele>
        <time>2016-07-17T08:19:56Z</time>
      </trkpt>
      <trkpt lat="50.70579" lon="3.72623">
        <ele>54.45</ele>
        <time>2016-07-17T08:20:13Z</time>
      </trkpt>
      <trkpt lat="50.70579" lon="3.72586">
        <ele>55.89</ele>
        <time>2016-07-17T08:20:30Z</time>
      </trkpt>
      <trkpt lat="50.7058" lon="3.72572">
        <ele>56.37</ele>
        <time>2016-07-17T08:20:37Z</time>
      </trkpt>
      <trkpt lat="50.70584" lon="3.72551">
        <ele>58.3</ele>
        <time>2016-07-17T08:20:48Z</time>
      </trkpt>
      <trkpt lat="50.70593" lon="3.72517">
        <ele>59.26</ele>
        <time>2016-07-17T08:21:06Z</time>
      </trkpt>
      <trkpt lat="50.706" lon="3.72494">
        <ele>59.26</ele>
        <time>2016-07-17T08:21:21Z</time>
      </trkpt>
      <trkpt lat="50.70601" lon="3.72489">
        <ele>59.26</ele>
        <time>2016-07-17T08:21:38Z</time>
      </trkpt>
      <trkpt lat="50.70599" lon="3.72486">
        <ele>59.26</ele>
        <time>2016-07-17T08:21:47Z</time>
      </trkpt>
      <trkpt lat="50.70598" lon="3.72485">
        <ele>59.74</ele>
        <time>2016-07-17T08:21:48Z</time>
      </trkpt>
      <trkpt lat="50.70597" lon="3.72484">
        <ele>59.74</ele>
        <time>2016-07-17T08:21:49Z</time>
      </trkpt>
      <trkpt lat="50.70585" lon="3.72474">
        <ele>60.22</ele>
        <time>2016-07-17T08:21:59Z</time>
      </trkpt>
      <trkpt lat="50.70582" lon="3.72472">
        <ele>58.78</ele>
        <time>2016-07-17T08:22:02Z</time>
      </trkpt>
      <trkpt lat="50.7058" lon="3.7247">
        <ele>60.22</ele>
        <time>2016-07-17T08:22:04Z</time>
      </trkpt>
      <trkpt lat="50.70566" lon="3.72457">
        <ele>59.26</ele>
        <time>2016-07-17T08:22:15Z</time>
      </trkpt>
      <trkpt lat="50.70552" lon="3.72445">
        <ele>60.7</ele>
        <time>2016-07-17T08:22:26Z</time>
      </trkpt>
      <trkpt lat="50.70547" lon="3.72442">
        <ele>59.74</ele>
        <time>2016-07-17T08:22:30Z</time>
      </trkpt>
      <trkpt lat="50.70544" lon="3.72438">
        <ele>60.7</ele>
        <time>2016-07-17T08:22:33Z</time>
      </trkpt>
      <trkpt lat="50.70531" lon="3.7242">
        <ele>59.74</ele>
        <time>2016-07-17T08:22:46Z</time>
      </trkpt>
      <trkpt lat="50.70506" lon="3.72389">
        <ele>61.18</ele>
        <time>2016-07-17T08:23:07Z</time>
      </trkpt>
      <trkpt lat="50.70496" lon="3.72376">
        <ele>61.18</ele>
        <time>2016-07-17T08:23:18Z</time>
      </trkpt>
      <trkpt lat="50.7048" lon="3.72353">
        <ele>61.66</ele>
        <time>2016-07-17T08:23:32Z</time>
      </trkpt>
      <trkpt lat="50.70462" lon="3.72332">
        <ele>61.66</ele>
        <time>2016-07-17T08:23:50Z</time>
      </trkpt>
      <trkpt lat="50.7044" lon="3.72309">
        <ele>60.7</ele>
        <time>2016-07-17T08:24:08Z</time>
      </trkpt>
      <trkpt lat="50.70432" lon="3.72304">
        <ele>62.14</ele>
        <time>2016-07-17T08:24:14Z</time>
      </trkpt>
      <trkpt lat="50.7043" lon="3.72302">
        <ele>60.7</ele>
        <time>2016-07-17T08:24:16Z</time>
      </trkpt>
      <trkpt lat="50.70422" lon="3.72296">
        <ele>62.14</ele>
        <time>2016-07-17T08:24:23Z</time>
      </trkpt>
      <trkpt lat="50.70418" lon="3.72293">
        <ele>60.7</ele>
        <time>2016-07-17T08:24:26Z</time>
      </trkpt>
      <trkpt lat="50.70415" lon="3.7229">
        <ele>62.14</ele>
        <time>2016-07-17T08:24:28Z</time>
      </trkpt>
      <trkpt lat="50.70399" lon="3.72274">
        <ele>60.7</ele>
        <time>2016-07-17T08:24:40Z</time>
      </trkpt>
      <trkpt lat="50.70379" lon="3.7226">
        <ele>62.62</ele>
        <time>2016-07-17T08:24:59Z</time>
      </trkpt>
      <trkpt lat="50.70353" lon="3.72236">
        <ele>63.58</ele>
        <time>2016-07-17T08:25:19Z</time>
      </trkpt>
      <trkpt lat="50.70339" lon="3.72224">
        <ele>62.14</ele>
        <time>2016-07-17T08:25:31Z</time>
      </trkpt>
      <trkpt lat="50.7033" lon="3.72215">
        <ele>63.1</ele>
        <time>2016-07-17T08:25:39Z</time>
      </trkpt>
      <trkpt lat="50.70307" lon="3.7219">
        <ele>63.58</ele>
        <time>2016-07-17T08:25:58Z</time>
      </trkpt>
      <trkpt lat="50.70283" lon="3.7217">
        <ele>64.55</ele>
        <time>2016-07-17T08:26:19Z</time>
      </trkpt>
      <trkpt lat="50.70268" lon="3.72154">
        <ele>63.1</ele>
        <time>2016-07-17T08:26:31Z</time>
      </trkpt>
      <trkpt lat="50.70265" lon="3.72153">
        <ele>64.07</ele>
        <time>2016-07-17T08:26:33Z</time>
      </trkpt>
      <trkpt lat="50.7024" lon="3.72134">
        <ele>64.55</ele>
        <time>2016-07-17T08:26:55Z</time>
      </trkpt>
      <trkpt lat="50.70238" lon="3.72132">
        <ele>62.62</ele>
        <time>2016-07-17T08:26:57Z</time>
      </trkpt>
      <trkpt lat="50.70234" lon="3.7213">
        <ele>65.03</ele>
        <time>2016-07-17T08:27:00Z</time>
      </trkpt>
      <trkpt lat="50.70232" lon="3.72128">
        <ele>63.58</ele>
        <time>2016-07-17T08:27:02Z</time>
      </trkpt>
      <trkpt lat="50.70216" lon="3.72113">
        <ele>64.55</ele>
        <time>2016-07-17T08:27:14Z</time>
      </trkpt>
      <trkpt lat="50.70187" lon="3.72092">
        <ele>63.1</ele>
        <time>2016-07-17T08:27:36Z</time>
      </trkpt>
      <trkpt lat="50.70186" lon="3.72091">
        <ele>63.1</ele>
        <time>2016-07-17T08:27:37Z</time>
      </trkpt>
      <trkpt lat="50.70183" lon="3.72089">
        <ele>64.55</ele>
        <time>2016-07-17T08:27:40Z</time>
      </trkpt>
      <trkpt lat="50.70171" lon="3.7208">
        <ele>64.55</ele>
        <time>2016-07-17T08:27:51Z</time>
      </trkpt>
      <trkpt lat="50.70145" lon="3.72061">
        <ele>63.58</ele>
        <time>2016-07-17T08:28:10Z</time>
      </trkpt>
      <trkpt lat="50.70128" lon="3.72046">
        <ele>63.58</ele>
        <time>2016-07-17T08:28:23Z</time>
      </trkpt>
      <trkpt lat="50.70107" lon="3.72032">
        <ele>64.55</ele>
        <time>2016-07-17T08:28:40Z</time>
      </trkpt>
      <trkpt lat="50.70098" lon="3.72029">
        <ele>63.1</ele>
        <time>2016-07-17T08:28:47Z</time>
      </trkpt>
      <trkpt lat="50.70094" lon="3.72026">
        <ele>64.55</ele>
        <time>2016-07-17T08:28:50Z</time>
      </trkpt>
      <trkpt lat="50.70064" lon="3.72002">
        <ele>63.1</ele>
        <time>2016-07-17T08:29:12Z</time>
      </trkpt>
      <trkpt lat="50.70059" lon="3.72">
        <ele>64.55</ele>
        <time>2016-07-17T08:29:15Z</time>
      </trkpt>
      <trkpt lat="50.7004" lon="3.7199">
        <ele>65.03</ele>
        <time>2016-07-17T08:29:32Z</time>
      </trkpt>
      <trkpt lat="50.70035" lon="3.71986">
        <ele>63.58</ele>
        <time>2016-07-17T08:29:36Z</time>
      </trkpt>
      <trkpt lat="50.70022" lon="3.71975">
        <ele>65.03</ele>
        <time>2016-07-17T08:29:46Z</time>
      </trkpt>
      <trkpt lat="50.70016" lon="3.7197">
        <ele>63.58</ele>
        <time>2016-07-17T08:29:51Z</time>
      </trkpt>
      <trkpt lat="50.69996" lon="3.71959">
        <ele>63.1</ele>
        <time>2016-07-17T08:30:08Z</time>
      </trkpt>
      <trkpt lat="50.69973" lon="3.71946">
        <ele>63.58</ele>
        <time>2016-07-17T08:30:24Z</time>
      </trkpt>
      <trkpt lat="50.69972" lon="3.71946">
        <ele>63.58</ele>
        <time>2016-07-17T08:30:25Z</time>
      </trkpt>
      <trkpt lat="50.6995" lon="3.71938">
        <ele>64.07</ele>
        <time>2016-07-17T08:30:42Z</time>
      </trkpt>
      <trkpt lat="50.69937" lon="3.71937">
        <ele>64.07</ele>
        <time>2016-07-17T08:30:51Z</time>
      </trkpt>
      <trkpt lat="50.6991" lon="3.71938">
        <ele>65.03</ele>
        <time>2016-07-17T08:31:09Z</time>
      </trkpt>
      <trkpt lat="50.69883" lon="3.71947">
        <ele>65.03</ele>
        <time>2016-07-17T08:31:28Z</time>
      </trkpt>
      <trkpt lat="50.69868" lon="3.7195">
        <ele>64.07</ele>
        <time>2016-07-17T08:31:42Z</time>
      </trkpt>
      <trkpt lat="50.69835" lon="3.71956">
        <ele>64.07</ele>
        <time>2016-07-17T08:32:04Z</time>
      </trkpt>
      <trkpt lat="50.69825" lon="3.71958">
        <ele>65.03</ele>
        <time>2016-07-17T08:32:11Z</time>
      </trkpt>
      <trkpt lat="50.69807" lon="3.71965">
        <ele>63.58</ele>
        <time>2016-07-17T08:32:25Z</time>
      </trkpt>
      <trkpt lat="50.69805" lon="3.71966">
        <ele>65.03</ele>
        <time>2016-07-17T08:32:27Z</time>
      </trkpt>
      <trkpt lat="50.69778" lon="3.71972">
        <ele>65.03</ele>
        <time>2016-07-17T08:32:47Z</time>
      </trkpt>
      <trkpt lat="50.69751" lon="3.71979">
        <ele>65.03</ele>
        <time>2016-07-17T08:33:06Z</time>
      </trkpt>
      <trkpt lat="50.69718" lon="3.71988">
        <ele>65.51</ele>
        <time>2016-07-17T08:33:29Z</time>
      </trkpt>
      <trkpt lat="50.69715" lon="3.71988">
        <ele>64.55</ele>
        <time>2016-07-17T08:33:31Z</time>
      </trkpt>
      <trkpt lat="50.69707" lon="3.71989">
        <ele>65.99</ele>
        <time>2016-07-17T08:33:37Z</time>
      </trkpt>
      <trkpt lat="50.69676" lon="3.71994">
        <ele>65.99</ele>
        <time>2016-07-17T08:33:58Z</time>
      </trkpt>
      <trkpt lat="50.69653" lon="3.72006">
        <ele>66.47</ele>
        <time>2016-07-17T08:34:14Z</time>
      </trkpt>
      <trkpt lat="50.69631" lon="3.72027">
        <ele>66.47</ele>
        <time>2016-07-17T08:34:31Z</time>
      </trkpt>
      <trkpt lat="50.6962" lon="3.72034">
        <ele>65.51</ele>
        <time>2016-07-17T08:34:40Z</time>
      </trkpt>
      <trkpt lat="50.69617" lon="3.72036">
        <ele>66.95</ele>
        <time>2016-07-17T08:34:42Z</time>
      </trkpt>
      <trkpt lat="50.69602" lon="3.72068">
        <ele>66.47</ele>
        <time>2016-07-17T08:35:02Z</time>
      </trkpt>
      <trkpt lat="50.69587" lon="3.72101">
        <ele>67.43</ele>
        <time>2016-07-17T08:35:21Z</time>
      </trkpt>
      <trkpt lat="50.69578" lon="3.72116">
        <ele>67.43</ele>
        <time>2016-07-17T08:35:30Z</time>
      </trkpt>
      <trkpt lat="50.69568" lon="3.72135">
        <ele>68.39</ele>
        <time>2016-07-17T08:35:41Z</time>
      </trkpt>
      <trkpt lat="50.69549" lon="3.72163">
        <ele>67.91</ele>
        <time>2016-07-17T08:35:59Z</time>
      </trkpt>
      <trkpt lat="50.69543" lon="3.7217">
        <ele>68.87</ele>
        <time>2016-07-17T08:36:05Z</time>
      </trkpt>
      <trkpt lat="50.69525" lon="3.72176">
        <ele>69.35</ele>
        <time>2016-07-17T08:36:22Z</time>
      </trkpt>
      <trkpt lat="50.69518" lon="3.72184">
        <ele>69.83</ele>
        <time>2016-07-17T08:36:27Z</time>
      </trkpt>
      <trkpt lat="50.69516" lon="3.72185">
        <ele>69.83</ele>
        <time>2016-07-17T08:36:28Z</time>
      </trkpt>
      <trkpt lat="50.69499" lon="3.72201">
        <ele>68.87</ele>
        <time>2016-07-17T08:36:40Z</time>
      </trkpt>
      <trkpt lat="50.69494" lon="3.72208">
        <ele>70.79</ele>
        <time>2016-07-17T08:36:44Z</time>
      </trkpt>
      <trkpt lat="50.69488" lon="3.72218">
        <ele>70.79</ele>
        <time>2016-07-17T08:36:50Z</time>
      </trkpt>
      <trkpt lat="50.69487" lon="3.72219">
        <ele>70.79</ele>
        <time>2016-07-17T08:36:51Z</time>
      </trkpt>
      <trkpt lat="50.69478" lon="3.72235">
        <ele>69.35</ele>
        <time>2016-07-17T08:37:04Z</time>
      </trkpt>
      <trkpt lat="50.69475" lon="3.72261">
        <ele>70.31</ele>
        <time>2016-07-17T08:37:18Z</time>
      </trkpt>
      <trkpt lat="50.69476" lon="3.72264">
        <ele>70.31</ele>
        <time>2016-07-17T08:37:19Z</time>
      </trkpt>
      <trkpt lat="50.69476" lon="3.72266">
        <ele>68.87</ele>
        <time>2016-07-17T08:37:20Z</time>
      </trkpt>
      <trkpt lat="50.69475" lon="3.72269">
        <ele>68.87</ele>
        <time>2016-07-17T08:37:21Z</time>
      </trkpt>
      <trkpt lat="50.69475" lon="3.72271">
        <ele>68.87</ele>
        <time>2016-07-17T08:37:22Z</time>
      </trkpt>
      <trkpt lat="50.69475" lon="3.72273">
        <ele>68.87</ele>
        <time>2016-07-17T08:37:23Z</time>
      </trkpt>
      <trkpt lat="50.69475" lon="3.72276">
        <ele>68.87</ele>
        <time>2016-07-17T08:37:24Z</time>
      </trkpt>
      <trkpt lat="50.69475" lon="3.72279">
        <ele>68.87</ele>
        <time>2016-07-17T08:37:25Z</time>
      </trkpt>
      <trkpt lat="50.69475" lon="3.72281">
        <ele>68.87</ele>
        <time>2016-07-17T08:37:26Z</time>
      </trkpt>
      <trkpt lat="50.69479" lon="3.72299">
        <ele>70.31</ele>
        <time>2016-07-17T08:37:35Z</time>
      </trkpt>
      <trkpt lat="50.69483" lon="3.72335">
        <ele>70.31</ele>
        <time>2016-07-17T08:37:52Z</time>
      </trkpt>
      <trkpt lat="50.69486" lon="3.7235">
        <ele>68.87</ele>
        <time>2016-07-17T08:37:59Z</time>
      </trkpt>
      <trkpt lat="50.69486" lon="3.72352">
        <ele>68.87</ele>
        <time>2016-07-17T08:38:00Z</time>
      </trkpt>
      <trkpt lat="50.69487" lon="3.72389">
        <ele>70.31</ele>
        <time>2016-07-17T08:38:19Z</time>
      </trkpt>
      <trkpt lat="50.69485" lon="3.72428">
        <ele>70.31</ele>
        <time>2016-07-17T08:38:36Z</time>
      </trkpt>
      <trkpt lat="50.69487" lon="3.72436">
        <ele>70.31</ele>
        <time>2016-07-17T08:38:39Z</time>
      </trkpt>
      <trkpt lat="50.69487" lon="3.72439">
        <ele>70.31</ele>
        <time>2016-07-17T08:38:40Z</time>
      </trkpt>
      <trkpt lat="50.69487" lon="3.72441">
        <ele>70.31</ele>
        <time>2016-07-17T08:38:41Z</time>
      </trkpt>
      <trkpt lat="50.69487" lon="3.72443">
        <ele>70.31</ele>
        <time>2016-07-17T08:38:42Z</time>
      </trkpt>
      <trkpt lat="50.69488" lon="3.72445">
        <ele>70.31</ele>
        <time>2016-07-17T08:38:43Z</time>
      </trkpt>
      <trkpt lat="50.69488" lon="3.72448">
        <ele>70.31</ele>
        <time>2016-07-17T08:38:44Z</time>
      </trkpt>
      <trkpt lat="50.6949" lon="3.72459">
        <ele>70.31</ele>
        <time>2016-07-17T08:38:50Z</time>
      </trkpt>
      <trkpt lat="50.6949" lon="3.72462">
        <ele>70.31</ele>
        <time>2016-07-17T08:38:51Z</time>
      </trkpt>
      <trkpt lat="50.69489" lon="3.72464">
        <ele>70.31</ele>
        <time>2016-07-17T08:38:52Z</time>
      </trkpt>
      <trkpt lat="50.69489" lon="3.72467">
        <ele>69.35</ele>
        <time>2016-07-17T08:38:53Z</time>
      </trkpt>
      <trkpt lat="50.69489" lon="3.72469">
        <ele>69.35</ele>
        <time>2016-07-17T08:38:54Z</time>
      </trkpt>
      <trkpt lat="50.69489" lon="3.72472">
        <ele>69.35</ele>
        <time>2016-07-17T08:38:55Z</time>
      </trkpt>
      <trkpt lat="50.69489" lon="3.72474">
        <ele>69.35</ele>
        <time>2016-07-17T08:38:56Z</time>
      </trkpt>
      <trkpt lat="50.69491" lon="3.72505">
        <ele>68.39</ele>
        <time>2016-07-17T08:39:11Z</time>
      </trkpt>
      <trkpt lat="50.69496" lon="3.72513">
        <ele>68.39</ele>
        <time>2016-07-17T08:39:15Z</time>
      </trkpt>
      <trkpt lat="50.69497" lon="3.72514">
        <ele>68.39</ele>
        <time>2016-07-17T08:39:16Z</time>
      </trkpt>
      <trkpt lat="50.69517" lon="3.72525">
        <ele>67.91</ele>
        <time>2016-07-17T08:39:29Z</time>
      </trkpt>
      <trkpt lat="50.69537" lon="3.72542">
        <ele>67.91</ele>
        <time>2016-07-17T08:39:45Z</time>
      </trkpt>
      <trkpt lat="50.6956" lon="3.72567">
        <ele>66.95</ele>
        <time>2016-07-17T08:40:05Z</time>
      </trkpt>
      <trkpt lat="50.69584" lon="3.72585">
        <ele>65.51</ele>
        <time>2016-07-17T08:40:24Z</time>
      </trkpt>
      <trkpt lat="50.69608" lon="3.72598">
        <ele>64.55</ele>
        <time>2016-07-17T08:40:42Z</time>
      </trkpt>
      <trkpt lat="50.69635" lon="3.72613">
        <ele>63.1</ele>
        <time>2016-07-17T08:41:03Z</time>
      </trkpt>
      <trkpt lat="50.69651" lon="3.72624">
        <ele>63.1</ele>
        <time>2016-07-17T08:41:16Z</time>
      </trkpt>
      <trkpt lat="50.69661" lon="3.7263">
        <ele>61.66</ele>
        <time>2016-07-17T08:41:24Z</time>
      </trkpt>
      <trkpt lat="50.69684" lon="3.72644">
        <ele>60.7</ele>
        <time>2016-07-17T08:41:40Z</time>
      </trkpt>
      <trkpt lat="50.69707" lon="3.72661">
        <ele>60.22</ele>
        <time>2016-07-17T08:41:57Z</time>
      </trkpt>
      <trkpt lat="50.69725" lon="3.72681">
        <ele>59.26</ele>
        <time>2016-07-17T08:42:12Z</time>
      </trkpt>
      <trkpt lat="50.69746" lon="3.72707">
        <ele>57.82</ele>
        <time>2016-07-17T08:42:31Z</time>
      </trkpt>
      <trkpt lat="50.69758" lon="3.7272">
        <ele>57.34</ele>
        <time>2016-07-17T08:42:41Z</time>
      </trkpt>
      <trkpt lat="50.6978" lon="3.72745">
        <ele>56.86</ele>
        <time>2016-07-17T08:43:00Z</time>
      </trkpt>
      <trkpt lat="50.698" lon="3.7277">
        <ele>55.41</ele>
        <time>2016-07-17T08:43:19Z</time>
      </trkpt>
      <trkpt lat="50.6982" lon="3.72794">
        <ele>56.37</ele>
        <time>2016-07-17T08:43:36Z</time>
      </trkpt>
      <trkpt lat="50.69826" lon="3.72802">
        <ele>54.93</ele>
        <time>2016-07-17T08:43:42Z</time>
      </trkpt>
      <trkpt lat="50.69847" lon="3.72828">
        <ele>53.97</ele>
        <time>2016-07-17T08:44:01Z</time>
      </trkpt>
      <trkpt lat="50.6987" lon="3.72852">
        <ele>53.97</ele>
        <time>2016-07-17T08:44:21Z</time>
      </trkpt>
      <trkpt lat="50.69896" lon="3.72883">
        <ele>52.05</ele>
        <time>2016-07-17T08:44:44Z</time>
      </trkpt>
      <trkpt lat="50.6991" lon="3.72901">
        <ele>52.53</ele>
        <time>2016-07-17T08:44:57Z</time>
      </trkpt>
      <trkpt lat="50.69919" lon="3.72912">
        <ele>50.61</ele>
        <time>2016-07-17T08:45:05Z</time>
      </trkpt>
      <trkpt lat="50.69927" lon="3.72921">
        <ele>51.57</ele>
        <time>2016-07-17T08:45:12Z</time>
      </trkpt>
      <trkpt lat="50.69935" lon="3.7293">
        <ele>50.13</ele>
        <time>2016-07-17T08:45:19Z</time>
      </trkpt>
      <trkpt lat="50.69961" lon="3.7296">
        <ele>49.16</ele>
        <time>2016-07-17T08:45:42Z</time>
      </trkpt>
      <trkpt lat="50.69986" lon="3.72989">
        <ele>49.16</ele>
        <time>2016-07-17T08:46:04Z</time>
      </trkpt>
      <trkpt lat="50.70008" lon="3.73025">
        <ele>47.24</ele>
        <time>2016-07-17T08:46:27Z</time>
      </trkpt>
      <trkpt lat="50.70021" lon="3.73049">
        <ele>46.76</ele>
        <time>2016-07-17T08:46:41Z</time>
      </trkpt>
      <trkpt lat="50.70021" lon="3.73051">
        <ele>46.76</ele>
        <time>2016-07-17T08:46:42Z</time>
      </trkpt>
      <trkpt lat="50.70021" lon="3.73054">
        <ele>46.76</ele>
        <time>2016-07-17T08:46:43Z</time>
      </trkpt>
      <trkpt lat="50.7001" lon="3.73096">
        <ele>46.76</ele>
        <time>2016-07-17T08:47:04Z</time>
      </trkpt>
      <trkpt lat="50.69992" lon="3.73133">
        <ele>46.28</ele>
        <time>2016-07-17T08:47:24Z</time>
      </trkpt>
      <trkpt lat="50.69981" lon="3.73157">
        <ele>44.84</ele>
        <time>2016-07-17T08:47:37Z</time>
      </trkpt>
      <trkpt lat="50.6997" lon="3.73179">
        <ele>45.8</ele>
        <time>2016-07-17T08:47:49Z</time>
      </trkpt>
      <trkpt lat="50.69967" lon="3.73189">
        <ele>44.36</ele>
        <time>2016-07-17T08:47:55Z</time>
      </trkpt>
      <trkpt lat="50.69954" lon="3.7323">
        <ele>43.88</ele>
        <time>2016-07-17T08:48:16Z</time>
      </trkpt>
      <trkpt lat="50.69942" lon="3.73263">
        <ele>43.88</ele>
        <time>2016-07-17T08:48:32Z</time>
      </trkpt>
      <trkpt lat="50.69932" lon="3.73301">
        <ele>44.84</ele>
        <time>2016-07-17T08:48:50Z</time>
      </trkpt>
      <trkpt lat="50.69926" lon="3.7334">
        <ele>43.88</ele>
        <time>2016-07-17T08:49:09Z</time>
      </trkpt>
      <trkpt lat="50.69925" lon="3.73343">
        <ele>43.88</ele>
        <time>2016-07-17T08:49:10Z</time>
      </trkpt>
      <trkpt lat="50.69925" lon="3.73362">
        <ele>43.88</ele>
        <time>2016-07-17T08:49:19Z</time>
      </trkpt>
      <trkpt lat="50.69923" lon="3.73379">
        <ele>44.36</ele>
        <time>2016-07-17T08:49:28Z</time>
      </trkpt>
      <trkpt lat="50.69922" lon="3.73383">
        <ele>45.8</ele>
        <time>2016-07-17T08:49:30Z</time>
      </trkpt>
      <trkpt lat="50.69914" lon="3.73421">
        <ele>45.32</ele>
        <time>2016-07-17T08:49:48Z</time>
      </trkpt>
      <trkpt lat="50.69911" lon="3.73426">
        <ele>46.76</ele>
        <time>2016-07-17T08:49:51Z</time>
      </trkpt>
      <trkpt lat="50.69909" lon="3.73441">
        <ele>47.24</ele>
        <time>2016-07-17T08:49:59Z</time>
      </trkpt>
      <trkpt lat="50.6991" lon="3.73445">
        <ele>45.8</ele>
        <time>2016-07-17T08:50:01Z</time>
      </trkpt>
      <trkpt lat="50.69911" lon="3.73447">
        <ele>45.8</ele>
        <time>2016-07-17T08:50:02Z</time>
      </trkpt>
      <trkpt lat="50.69916" lon="3.73453">
        <ele>47.24</ele>
        <time>2016-07-17T08:50:07Z</time>
      </trkpt>
      <trkpt lat="50.69917" lon="3.73454">
        <ele>47.24</ele>
        <time>2016-07-17T08:50:08Z</time>
      </trkpt>
      <trkpt lat="50.69918" lon="3.73455">
        <ele>47.24</ele>
        <time>2016-07-17T08:50:09Z</time>
      </trkpt>
      <trkpt lat="50.69925" lon="3.7346">
        <ele>45.8</ele>
        <time>2016-07-17T08:50:14Z</time>
      </trkpt>
      <trkpt lat="50.69927" lon="3.73462">
        <ele>47.24</ele>
        <time>2016-07-17T08:50:16Z</time>
      </trkpt>
      <trkpt lat="50.69933" lon="3.7347">
        <ele>45.8</ele>
        <time>2016-07-17T08:50:21Z</time>
      </trkpt>
      <trkpt lat="50.69936" lon="3.73473">
        <ele>47.24</ele>
        <time>2016-07-17T08:50:23Z</time>
      </trkpt>
      <trkpt lat="50.69941" lon="3.73478">
        <ele>45.8</ele>
        <time>2016-07-17T08:50:27Z</time>
      </trkpt>
      <trkpt lat="50.69945" lon="3.73482">
        <ele>47.24</ele>
        <time>2016-07-17T08:50:30Z</time>
      </trkpt>
      <trkpt lat="50.69951" lon="3.73489">
        <ele>45.32</ele>
        <time>2016-07-17T08:50:36Z</time>
      </trkpt>
      <trkpt lat="50.69952" lon="3.73491">
        <ele>47.24</ele>
        <time>2016-07-17T08:50:38Z</time>
      </trkpt>
      <trkpt lat="50.6996" lon="3.73498">
        <ele>45.8</ele>
        <time>2016-07-17T08:50:44Z</time>
      </trkpt>
      <trkpt lat="50.69962" lon="3.735">
        <ele>47.24</ele>
        <time>2016-07-17T08:50:46Z</time>
      </trkpt>
      <trkpt lat="50.6997" lon="3.73508">
        <ele>47.24</ele>
        <time>2016-07-17T08:50:52Z</time>
      </trkpt>
      <trkpt lat="50.69979" lon="3.73515">
        <ele>47.72</ele>
        <time>2016-07-17T08:51:00Z</time>
      </trkpt>
      <trkpt lat="50.69982" lon="3.73517">
        <ele>45.32</ele>
        <time>2016-07-17T08:51:03Z</time>
      </trkpt>
      <trkpt lat="50.69985" lon="3.73519">
        <ele>47.24</ele>
        <time>2016-07-17T08:51:05Z</time>
      </trkpt>
      <trkpt lat="50.70003" lon="3.73546">
        <ele>47.24</ele>
        <time>2016-07-17T08:51:25Z</time>
      </trkpt>
      <trkpt lat="50.70005" lon="3.73555">
        <ele>46.28</ele>
        <time>2016-07-17T08:51:29Z</time>
      </trkpt>
      <trkpt lat="50.70006" lon="3.73559">
        <ele>47.72</ele>
        <time>2016-07-17T08:51:31Z</time>
      </trkpt>
      <trkpt lat="50.70011" lon="3.73578">
        <ele>48.2</ele>
        <time>2016-07-17T08:51:41Z</time>
      </trkpt>
      <trkpt lat="50.70012" lon="3.73585">
        <ele>46.76</ele>
        <time>2016-07-17T08:51:45Z</time>
      </trkpt>
      <trkpt lat="50.70013" lon="3.7359">
        <ele>48.2</ele>
        <time>2016-07-17T08:51:47Z</time>
      </trkpt>
      <trkpt lat="50.70014" lon="3.73596">
        <ele>46.76</ele>
        <time>2016-07-17T08:51:50Z</time>
      </trkpt>
      <trkpt lat="50.70019" lon="3.73615">
        <ele>48.2</ele>
        <time>2016-07-17T08:51:59Z</time>
      </trkpt>
      <trkpt lat="50.7002" lon="3.73618">
        <ele>47.24</ele>
        <time>2016-07-17T08:52:01Z</time>
      </trkpt>
      <trkpt lat="50.70024" lon="3.73632">
        <ele>48.2</ele>
        <time>2016-07-17T08:52:08Z</time>
      </trkpt>
      <trkpt lat="50.70034" lon="3.73666">
        <ele>48.2</ele>
        <time>2016-07-17T08:52:25Z</time>
      </trkpt>
      <trkpt lat="50.70035" lon="3.7367">
        <ele>46.28</ele>
        <time>2016-07-17T08:52:27Z</time>
      </trkpt>
      <trkpt lat="50.70035" lon="3.73674">
        <ele>48.2</ele>
        <time>2016-07-17T08:52:29Z</time>
      </trkpt>
      <trkpt lat="50.70037" lon="3.73682">
        <ele>46.76</ele>
        <time>2016-07-17T08:52:33Z</time>
      </trkpt>
      <trkpt lat="50.70039" lon="3.73713">
        <ele>45.32</ele>
        <time>2016-07-17T08:52:47Z</time>
      </trkpt>
      <trkpt lat="50.70039" lon="3.73717">
        <ele>46.76</ele>
        <time>2016-07-17T08:52:49Z</time>
      </trkpt>
      <trkpt lat="50.70042" lon="3.7373">
        <ele>45.8</ele>
        <time>2016-07-17T08:52:56Z</time>
      </trkpt>
      <trkpt lat="50.70042" lon="3.73737">
        <ele>47.24</ele>
        <time>2016-07-17T08:52:59Z</time>
      </trkpt>
      <trkpt lat="50.70043" lon="3.73741">
        <ele>45.32</ele>
        <time>2016-07-17T08:53:01Z</time>
      </trkpt>
      <trkpt lat="50.70043" lon="3.73777">
        <ele>46.76</ele>
        <time>2016-07-17T08:53:20Z</time>
      </trkpt>
      <trkpt lat="50.70042" lon="3.738">
        <ele>46.76</ele>
        <time>2016-07-17T08:53:31Z</time>
      </trkpt>
      <trkpt lat="50.70045" lon="3.73825">
        <ele>45.8</ele>
        <time>2016-07-17T08:53:43Z</time>
      </trkpt>
      <trkpt lat="50.70044" lon="3.73851">
        <ele>47.72</ele>
        <time>2016-07-17T08:53:56Z</time>
      </trkpt>
      <trkpt lat="50.70043" lon="3.73855">
        <ele>46.76</ele>
        <time>2016-07-17T08:53:58Z</time>
      </trkpt>
      <trkpt lat="50.70037" lon="3.73889">
        <ele>47.24</ele>
        <time>2016-07-17T08:54:16Z</time>
      </trkpt>
      <trkpt lat="50.70037" lon="3.73891">
        <ele>47.24</ele>
        <time>2016-07-17T08:54:17Z</time>
      </trkpt>
      <trkpt lat="50.70036" lon="3.73895">
        <ele>48.68</ele>
        <time>2016-07-17T08:54:19Z</time>
      </trkpt>
      <trkpt lat="50.70035" lon="3.73909">
        <ele>48.68</ele>
        <time>2016-07-17T08:54:27Z</time>
      </trkpt>
      <trkpt lat="50.70028" lon="3.7395">
        <ele>50.13</ele>
        <time>2016-07-17T08:54:48Z</time>
      </trkpt>
      <trkpt lat="50.70028" lon="3.73984">
        <ele>52.05</ele>
        <time>2016-07-17T08:55:08Z</time>
      </trkpt>
      <trkpt lat="50.70033" lon="3.73988">
        <ele>52.05</ele>
        <time>2016-07-17T08:55:12Z</time>
      </trkpt>
      <trkpt lat="50.70034" lon="3.73989">
        <ele>52.05</ele>
        <time>2016-07-17T08:55:13Z</time>
      </trkpt>
      <trkpt lat="50.70035" lon="3.7399">
        <ele>52.05</ele>
        <time>2016-07-17T08:55:14Z</time>
      </trkpt>
      <trkpt lat="50.70036" lon="3.73991">
        <ele>52.05</ele>
        <time>2016-07-17T08:55:15Z</time>
      </trkpt>
      <trkpt lat="50.70038" lon="3.73992">
        <ele>52.05</ele>
        <time>2016-07-17T08:55:16Z</time>
      </trkpt>
      <trkpt lat="50.70039" lon="3.73993">
        <ele>52.05</ele>
        <time>2016-07-17T08:55:17Z</time>
      </trkpt>
      <trkpt lat="50.70041" lon="3.73995">
        <ele>50.13</ele>
        <time>2016-07-17T08:55:19Z</time>
      </trkpt>
      <trkpt lat="50.70043" lon="3.73997">
        <ele>52.05</ele>
        <time>2016-07-17T08:55:21Z</time>
      </trkpt>
      <trkpt lat="50.70058" lon="3.74017">
        <ele>51.57</ele>
        <time>2016-07-17T08:55:38Z</time>
      </trkpt>
      <trkpt lat="50.7006" lon="3.74033">
        <ele>53.01</ele>
        <time>2016-07-17T08:55:47Z</time>
      </trkpt>
      <trkpt lat="50.70067" lon="3.74071">
        <ele>53.97</ele>
        <time>2016-07-17T08:56:07Z</time>
      </trkpt>
      <trkpt lat="50.70072" lon="3.74089">
        <ele>53.49</ele>
        <time>2016-07-17T08:56:17Z</time>
      </trkpt>
      <trkpt lat="50.70073" lon="3.74095">
        <ele>55.41</ele>
        <time>2016-07-17T08:56:20Z</time>
      </trkpt>
      <trkpt lat="50.70077" lon="3.74124">
        <ele>56.37</ele>
        <time>2016-07-17T08:56:35Z</time>
      </trkpt>
      <trkpt lat="50.70081" lon="3.74145">
        <ele>55.89</ele>
        <time>2016-07-17T08:56:46Z</time>
      </trkpt>
      <trkpt lat="50.70085" lon="3.74162">
        <ele>58.3</ele>
        <time>2016-07-17T08:56:54Z</time>
      </trkpt>
      <trkpt lat="50.70087" lon="3.74167">
        <ele>56.37</ele>
        <time>2016-07-17T08:56:57Z</time>
      </trkpt>
      <trkpt lat="50.70091" lon="3.7419">
        <ele>56.86</ele>
        <time>2016-07-17T08:57:08Z</time>
      </trkpt>
      <trkpt lat="50.70092" lon="3.74195">
        <ele>58.3</ele>
        <time>2016-07-17T08:57:10Z</time>
      </trkpt>
      <trkpt lat="50.70096" lon="3.74212">
        <ele>57.82</ele>
        <time>2016-07-17T08:57:19Z</time>
      </trkpt>
      <trkpt lat="50.70097" lon="3.74218">
        <ele>59.26</ele>
        <time>2016-07-17T08:57:22Z</time>
      </trkpt>
      <trkpt lat="50.70102" lon="3.74254">
        <ele>59.26</ele>
        <time>2016-07-17T08:57:39Z</time>
      </trkpt>
      <trkpt lat="50.70115" lon="3.74286">
        <ele>60.7</ele>
        <time>2016-07-17T08:57:58Z</time>
      </trkpt>
      <trkpt lat="50.70123" lon="3.74289">
        <ele>60.7</ele>
        <time>2016-07-17T08:58:05Z</time>
      </trkpt>
      <trkpt lat="50.70138" lon="3.74294">
        <ele>61.18</ele>
        <time>2016-07-17T08:58:15Z</time>
      </trkpt>
      <trkpt lat="50.70159" lon="3.74303">
        <ele>60.7</ele>
        <time>2016-07-17T08:58:32Z</time>
      </trkpt>
      <trkpt lat="50.70163" lon="3.74306">
        <ele>61.66</ele>
        <time>2016-07-17T08:58:35Z</time>
      </trkpt>
      <trkpt lat="50.70185" lon="3.74313">
        <ele>62.62</ele>
        <time>2016-07-17T08:58:51Z</time>
      </trkpt>
      <trkpt lat="50.70186" lon="3.74314">
        <ele>62.62</ele>
        <time>2016-07-17T08:58:52Z</time>
      </trkpt>
      <trkpt lat="50.7019" lon="3.74317">
        <ele>61.18</ele>
        <time>2016-07-17T08:58:55Z</time>
      </trkpt>
      <trkpt lat="50.70197" lon="3.74319">
        <ele>62.62</ele>
        <time>2016-07-17T08:58:59Z</time>
      </trkpt>
      <trkpt lat="50.70201" lon="3.74321">
        <ele>61.18</ele>
        <time>2016-07-17T08:59:02Z</time>
      </trkpt>
      <trkpt lat="50.70209" lon="3.74326">
        <ele>62.62</ele>
        <time>2016-07-17T08:59:08Z</time>
      </trkpt>
      <trkpt lat="50.70212" lon="3.74327">
        <ele>62.62</ele>
        <time>2016-07-17T08:59:12Z</time>
      </trkpt>
      <trkpt lat="50.70226" lon="3.74348">
        <ele>62.14</ele>
        <time>2016-07-17T08:59:28Z</time>
      </trkpt>
      <trkpt lat="50.70234" lon="3.74356">
        <ele>63.1</ele>
        <time>2016-07-17T08:59:35Z</time>
      </trkpt>
      <trkpt lat="50.70236" lon="3.74358">
        <ele>62.14</ele>
        <time>2016-07-17T08:59:37Z</time>
      </trkpt>
      <trkpt lat="50.7024" lon="3.74361">
        <ele>63.58</ele>
        <time>2016-07-17T08:59:40Z</time>
      </trkpt>
      <trkpt lat="50.70256" lon="3.74376">
        <ele>62.14</ele>
        <time>2016-07-17T08:59:52Z</time>
      </trkpt>
      <trkpt lat="50.70262" lon="3.74382">
        <ele>62.14</ele>
        <time>2016-07-17T08:59:58Z</time>
      </trkpt>
      <trkpt lat="50.70266" lon="3.74384">
        <ele>63.58</ele>
        <time>2016-07-17T09:00:01Z</time>
      </trkpt>
      <trkpt lat="50.70268" lon="3.74386">
        <ele>62.14</ele>
        <time>2016-07-17T09:00:04Z</time>
      </trkpt>
      <trkpt lat="50.70287" lon="3.74402">
        <ele>63.58</ele>
        <time>2016-07-17T09:00:19Z</time>
      </trkpt>
      <trkpt lat="50.70309" lon="3.74418">
        <ele>62.62</ele>
        <time>2016-07-17T09:00:36Z</time>
      </trkpt>
      <trkpt lat="50.7031" lon="3.74419">
        <ele>62.62</ele>
        <time>2016-07-17T09:00:37Z</time>
      </trkpt>
      <trkpt lat="50.70313" lon="3.74424">
        <ele>61.18</ele>
        <time>2016-07-17T09:00:41Z</time>
      </trkpt>
      <trkpt lat="50.70314" lon="3.74427">
        <ele>61.18</ele>
        <time>2016-07-17T09:00:42Z</time>
      </trkpt>
      <trkpt lat="50.70317" lon="3.74465">
        <ele>60.22</ele>
        <time>2016-07-17T09:00:59Z</time>
      </trkpt>
      <trkpt lat="50.7032" lon="3.74497">
        <ele>59.26</ele>
        <time>2016-07-17T09:01:14Z</time>
      </trkpt>
      <trkpt lat="50.70325" lon="3.74537">
        <ele>59.74</ele>
        <time>2016-07-17T09:01:32Z</time>
      </trkpt>
      <trkpt lat="50.70326" lon="3.74551">
        <ele>59.74</ele>
        <time>2016-07-17T09:01:49Z</time>
      </trkpt>
      <trkpt lat="50.70323" lon="3.74555">
        <ele>58.3</ele>
        <time>2016-07-17T09:02:07Z</time>
      </trkpt>
      <trkpt lat="50.70326" lon="3.74561">
        <ele>59.74</ele>
        <time>2016-07-17T09:02:10Z</time>
      </trkpt>
      <trkpt lat="50.70332" lon="3.74574">
        <ele>58.3</ele>
        <time>2016-07-17T09:02:16Z</time>
      </trkpt>
      <trkpt lat="50.70347" lon="3.74609">
        <ele>57.82</ele>
        <time>2016-07-17T09:02:34Z</time>
      </trkpt>
      <trkpt lat="50.70354" lon="3.74634">
        <ele>59.26</ele>
        <time>2016-07-17T09:02:48Z</time>
      </trkpt>
      <trkpt lat="50.70365" lon="3.74667">
        <ele>57.82</ele>
        <time>2016-07-17T09:03:07Z</time>
      </trkpt>
      <trkpt lat="50.70379" lon="3.74711">
        <ele>56.86</ele>
        <time>2016-07-17T09:03:27Z</time>
      </trkpt>
      <trkpt lat="50.70384" lon="3.74728">
        <ele>58.3</ele>
        <time>2016-07-17T09:03:34Z</time>
      </trkpt>
      <trkpt lat="50.70393" lon="3.74756">
        <ele>57.34</ele>
        <time>2016-07-17T09:03:47Z</time>
      </trkpt>
      <trkpt lat="50.70412" lon="3.74792">
        <ele>57.34</ele>
        <time>2016-07-17T09:04:07Z</time>
      </trkpt>
      <trkpt lat="50.70435" lon="3.74807">
        <ele>57.34</ele>
        <time>2016-07-17T09:04:25Z</time>
      </trkpt>
      <trkpt lat="50.70465" lon="3.74808">
        <ele>58.3</ele>
        <time>2016-07-17T09:04:46Z</time>
      </trkpt>
      <trkpt lat="50.70486" lon="3.74796">
        <ele>57.34</ele>
        <time>2016-07-17T09:05:02Z</time>
      </trkpt>
      <trkpt lat="50.70507" lon="3.7479">
        <ele>57.82</ele>
        <time>2016-07-17T09:05:15Z</time>
      </trkpt>
      <trkpt lat="50.7053" lon="3.74797">
        <ele>56.86</ele>
        <time>2016-07-17T09:05:30Z</time>
      </trkpt>
      <trkpt lat="50.70538" lon="3.748">
        <ele>57.82</ele>
        <time>2016-07-17T09:05:35Z</time>
      </trkpt>
      <trkpt lat="50.70559" lon="3.74814">
        <ele>59.26</ele>
        <time>2016-07-17T09:05:54Z</time>
      </trkpt>
      <trkpt lat="50.70564" lon="3.74824">
        <ele>59.74</ele>
        <time>2016-07-17T09:06:00Z</time>
      </trkpt>
      <trkpt lat="50.70581" lon="3.74855">
        <ele>59.74</ele>
        <time>2016-07-17T09:06:17Z</time>
      </trkpt>
      <trkpt lat="50.70597" lon="3.74889">
        <ele>60.22</ele>
        <time>2016-07-17T09:06:35Z</time>
      </trkpt>
      <trkpt lat="50.7061" lon="3.74922">
        <ele>58.78</ele>
        <time>2016-07-17T09:06:54Z</time>
      </trkpt>
      <trkpt lat="50.70612" lon="3.74928">
        <ele>60.22</ele>
        <time>2016-07-17T09:06:57Z</time>
      </trkpt>
      <trkpt lat="50.7062" lon="3.74938">
        <ele>58.3</ele>
        <time>2016-07-17T09:07:04Z</time>
      </trkpt>
      <trkpt lat="50.70622" lon="3.74939">
        <ele>59.74</ele>
        <time>2016-07-17T09:07:06Z</time>
      </trkpt>
      <trkpt lat="50.7064" lon="3.74959">
        <ele>60.22</ele>
        <time>2016-07-17T09:07:21Z</time>
      </trkpt>
      <trkpt lat="50.70668" lon="3.74961">
        <ele>60.7</ele>
        <time>2016-07-17T09:07:42Z</time>
      </trkpt>
      <trkpt lat="50.70673" lon="3.7496">
        <ele>60.7</ele>
        <time>2016-07-17T09:07:45Z</time>
      </trkpt>
      <trkpt lat="50.70674" lon="3.7496">
        <ele>59.26</ele>
        <time>2016-07-17T09:07:46Z</time>
      </trkpt>
      <trkpt lat="50.70675" lon="3.74959">
        <ele>59.26</ele>
        <time>2016-07-17T09:07:47Z</time>
      </trkpt>
      <trkpt lat="50.70683" lon="3.74959">
        <ele>60.7</ele>
        <time>2016-07-17T09:07:52Z</time>
      </trkpt>
      <trkpt lat="50.70692" lon="3.74966">
        <ele>59.26</ele>
        <time>2016-07-17T09:07:58Z</time>
      </trkpt>
      <trkpt lat="50.70705" lon="3.74997">
        <ele>58.78</ele>
        <time>2016-07-17T09:08:14Z</time>
      </trkpt>
      <trkpt lat="50.70721" lon="3.75031">
        <ele>59.26</ele>
        <time>2016-07-17T09:08:32Z</time>
      </trkpt>
      <trkpt lat="50.70727" lon="3.75041">
        <ele>57.82</ele>
        <time>2016-07-17T09:08:38Z</time>
      </trkpt>
      <trkpt lat="50.70731" lon="3.75048">
        <ele>58.78</ele>
        <time>2016-07-17T09:08:42Z</time>
      </trkpt>
      <trkpt lat="50.70736" lon="3.75056">
        <ele>57.34</ele>
        <time>2016-07-17T09:08:48Z</time>
      </trkpt>
      <trkpt lat="50.70739" lon="3.75059">
        <ele>58.78</ele>
        <time>2016-07-17T09:08:51Z</time>
      </trkpt>
      <trkpt lat="50.70744" lon="3.75067">
        <ele>57.82</ele>
        <time>2016-07-17T09:08:57Z</time>
      </trkpt>
      <trkpt lat="50.70754" lon="3.7509">
        <ele>58.78</ele>
        <time>2016-07-17T09:09:10Z</time>
      </trkpt>
      <trkpt lat="50.70755" lon="3.75094">
        <ele>57.34</ele>
        <time>2016-07-17T09:09:12Z</time>
      </trkpt>
      <trkpt lat="50.70768" lon="3.75133">
        <ele>55.89</ele>
        <time>2016-07-17T09:09:30Z</time>
      </trkpt>
      <trkpt lat="50.70774" lon="3.75149">
        <ele>55.41</ele>
        <time>2016-07-17T09:09:39Z</time>
      </trkpt>
      <trkpt lat="50.70778" lon="3.75157">
        <ele>54.93</ele>
        <time>2016-07-17T09:09:44Z</time>
      </trkpt>
      <trkpt lat="50.70791" lon="3.75191">
        <ele>53.97</ele>
        <time>2016-07-17T09:10:04Z</time>
      </trkpt>
      <trkpt lat="50.70807" lon="3.75228">
        <ele>52.53</ele>
        <time>2016-07-17T09:10:23Z</time>
      </trkpt>
      <trkpt lat="50.70822" lon="3.7526">
        <ele>51.57</ele>
        <time>2016-07-17T09:10:40Z</time>
      </trkpt>
      <trkpt lat="50.70832" lon="3.75288">
        <ele>51.09</ele>
        <time>2016-07-17T09:10:57Z</time>
      </trkpt>
      <trkpt lat="50.7084" lon="3.75325">
        <ele>50.13</ele>
        <time>2016-07-17T09:11:14Z</time>
      </trkpt>
      <trkpt lat="50.70847" lon="3.75354">
        <ele>49.16</ele>
        <time>2016-07-17T09:11:29Z</time>
      </trkpt>
      <trkpt lat="50.7085" lon="3.75385">
        <ele>49.16</ele>
        <time>2016-07-17T09:11:43Z</time>
      </trkpt>
      <trkpt lat="50.70851" lon="3.75421">
        <ele>48.68</ele>
        <time>2016-07-17T09:11:58Z</time>
      </trkpt>
      <trkpt lat="50.70854" lon="3.75457">
        <ele>48.2</ele>
        <time>2016-07-17T09:12:17Z</time>
      </trkpt>
      <trkpt lat="50.70858" lon="3.755">
        <ele>48.2</ele>
        <time>2016-07-17T09:12:36Z</time>
      </trkpt>
      <trkpt lat="50.7086" lon="3.75524">
        <ele>47.24</ele>
        <time>2016-07-17T09:12:46Z</time>
      </trkpt>
      <trkpt lat="50.7086" lon="3.75529">
        <ele>48.2</ele>
        <time>2016-07-17T09:12:48Z</time>
      </trkpt>
      <trkpt lat="50.70862" lon="3.75546">
        <ele>47.24</ele>
        <time>2016-07-17T09:12:55Z</time>
      </trkpt>
      <trkpt lat="50.70871" lon="3.75587">
        <ele>46.28</ele>
        <time>2016-07-17T09:13:14Z</time>
      </trkpt>
      <trkpt lat="50.70881" lon="3.75611">
        <ele>48.2</ele>
        <time>2016-07-17T09:13:28Z</time>
      </trkpt>
      <trkpt lat="50.70882" lon="3.75614">
        <ele>46.76</ele>
        <time>2016-07-17T09:13:30Z</time>
      </trkpt>
      <trkpt lat="50.70893" lon="3.75639">
        <ele>46.76</ele>
        <time>2016-07-17T09:13:44Z</time>
      </trkpt>
      <trkpt lat="50.70912" lon="3.7567">
        <ele>45.32</ele>
        <time>2016-07-17T09:14:05Z</time>
      </trkpt>
      <trkpt lat="50.70915" lon="3.75675">
        <ele>46.76</ele>
        <time>2016-07-17T09:14:08Z</time>
      </trkpt>
      <trkpt lat="50.70928" lon="3.75708">
        <ele>46.28</ele>
        <time>2016-07-17T09:14:24Z</time>
      </trkpt>
      <trkpt lat="50.70943" lon="3.75738">
        <ele>44.36</ele>
        <time>2016-07-17T09:14:42Z</time>
      </trkpt>
      <trkpt lat="50.70947" lon="3.75746">
        <ele>45.8</ele>
        <time>2016-07-17T09:14:47Z</time>
      </trkpt>
      <trkpt lat="50.70956" lon="3.75768">
        <ele>43.88</ele>
        <time>2016-07-17T09:14:57Z</time>
      </trkpt>
      <trkpt lat="50.70966" lon="3.75791">
        <ele>44.36</ele>
        <time>2016-07-17T09:15:11Z</time>
      </trkpt>
      <trkpt lat="50.70977" lon="3.75817">
        <ele>45.32</ele>
        <time>2016-07-17T09:15:26Z</time>
      </trkpt>
      <trkpt lat="50.70979" lon="3.75823">
        <ele>43.88</ele>
        <time>2016-07-17T09:15:29Z</time>
      </trkpt>
      <trkpt lat="50.70981" lon="3.75826">
        <ele>45.32</ele>
        <time>2016-07-17T09:15:31Z</time>
      </trkpt>
      <trkpt lat="50.70982" lon="3.75829">
        <ele>43.88</ele>
        <time>2016-07-17T09:15:33Z</time>
      </trkpt>
      <trkpt lat="50.70997" lon="3.7586">
        <ele>43.4</ele>
        <time>2016-07-17T09:15:50Z</time>
      </trkpt>
      <trkpt lat="50.71" lon="3.75868">
        <ele>43.88</ele>
        <time>2016-07-17T09:15:55Z</time>
      </trkpt>
      <trkpt lat="50.71003" lon="3.75872">
        <ele>42.44</ele>
        <time>2016-07-17T09:15:58Z</time>
      </trkpt>
      <trkpt lat="50.71017" lon="3.75899">
        <ele>41.95</ele>
        <time>2016-07-17T09:16:14Z</time>
      </trkpt>
      <trkpt lat="50.71018" lon="3.75903">
        <ele>43.4</ele>
        <time>2016-07-17T09:16:16Z</time>
      </trkpt>
      <trkpt lat="50.71022" lon="3.75909">
        <ele>41.47</ele>
        <time>2016-07-17T09:16:20Z</time>
      </trkpt>
      <trkpt lat="50.71024" lon="3.75912">
        <ele>42.92</ele>
        <time>2016-07-17T09:16:22Z</time>
      </trkpt>
      <trkpt lat="50.71032" lon="3.75925">
        <ele>41.47</ele>
        <time>2016-07-17T09:16:30Z</time>
      </trkpt>
      <trkpt lat="50.71035" lon="3.75929">
        <ele>41.47</ele>
        <time>2016-07-17T09:16:34Z</time>
      </trkpt>
      <trkpt lat="50.71039" lon="3.75933">
        <ele>41.95</ele>
        <time>2016-07-17T09:16:38Z</time>
      </trkpt>
      <trkpt lat="50.7104" lon="3.75934">
        <ele>41.95</ele>
        <time>2016-07-17T09:16:39Z</time>
      </trkpt>
      <trkpt lat="50.71041" lon="3.75936">
        <ele>40.51</ele>
        <time>2016-07-17T09:16:40Z</time>
      </trkpt>
      <trkpt lat="50.71042" lon="3.75937">
        <ele>40.51</ele>
        <time>2016-07-17T09:16:41Z</time>
      </trkpt>
      <trkpt lat="50.71043" lon="3.75939">
        <ele>41.95</ele>
        <time>2016-07-17T09:16:42Z</time>
      </trkpt>
      <trkpt lat="50.71044" lon="3.7594">
        <ele>41.95</ele>
        <time>2016-07-17T09:16:43Z</time>
      </trkpt>
      <trkpt lat="50.71056" lon="3.75965">
        <ele>40.51</ele>
        <time>2016-07-17T09:16:59Z</time>
      </trkpt>
      <trkpt lat="50.71058" lon="3.7597">
        <ele>40.99</ele>
        <time>2016-07-17T09:17:02Z</time>
      </trkpt>
      <trkpt lat="50.71059" lon="3.75971">
        <ele>40.99</ele>
        <time>2016-07-17T09:17:03Z</time>
      </trkpt>
      <trkpt lat="50.71064" lon="3.75981">
        <ele>39.07</ele>
        <time>2016-07-17T09:17:09Z</time>
      </trkpt>
      <trkpt lat="50.71079" lon="3.7601">
        <ele>39.07</ele>
        <time>2016-07-17T09:17:26Z</time>
      </trkpt>
      <trkpt lat="50.71082" lon="3.76012">
        <ele>38.11</ele>
        <time>2016-07-17T09:17:28Z</time>
      </trkpt>
      <trkpt lat="50.71083" lon="3.76012">
        <ele>38.11</ele>
        <time>2016-07-17T09:17:29Z</time>
      </trkpt>
      <trkpt lat="50.71098" lon="3.76004">
        <ele>39.07</ele>
        <time>2016-07-17T09:17:41Z</time>
      </trkpt>
      <trkpt lat="50.7111" lon="3.75996">
        <ele>36.67</ele>
        <time>2016-07-17T09:17:50Z</time>
      </trkpt>
      <trkpt lat="50.71133" lon="3.75984">
        <ele>36.19</ele>
        <time>2016-07-17T09:18:08Z</time>
      </trkpt>
      <trkpt lat="50.71161" lon="3.75974">
        <ele>34.74</ele>
        <time>2016-07-17T09:18:26Z</time>
      </trkpt>
      <trkpt lat="50.71168" lon="3.75972">
        <ele>36.67</ele>
        <time>2016-07-17T09:18:30Z</time>
      </trkpt>
      <trkpt lat="50.71172" lon="3.75971">
        <ele>35.23</ele>
        <time>2016-07-17T09:18:33Z</time>
      </trkpt>
      <trkpt lat="50.71181" lon="3.75969">
        <ele>34.26</ele>
        <time>2016-07-17T09:18:39Z</time>
      </trkpt>
      <trkpt lat="50.71198" lon="3.75962">
        <ele>32.34</ele>
        <time>2016-07-17T09:18:53Z</time>
      </trkpt>
      <trkpt lat="50.71202" lon="3.7596">
        <ele>33.78</ele>
        <time>2016-07-17T09:18:56Z</time>
      </trkpt>
      <trkpt lat="50.71223" lon="3.7595">
        <ele>33.3</ele>
        <time>2016-07-17T09:19:12Z</time>
      </trkpt>
      <trkpt lat="50.71245" lon="3.75936">
        <ele>32.82</ele>
        <time>2016-07-17T09:19:27Z</time>
      </trkpt>
      <trkpt lat="50.71256" lon="3.75926">
        <ele>31.38</ele>
        <time>2016-07-17T09:19:37Z</time>
      </trkpt>
      <trkpt lat="50.71264" lon="3.75921">
        <ele>32.82</ele>
        <time>2016-07-17T09:19:43Z</time>
      </trkpt>
      <trkpt lat="50.71278" lon="3.75905">
        <ele>30.9</ele>
        <time>2016-07-17T09:19:54Z</time>
      </trkpt>
      <trkpt lat="50.71283" lon="3.75898">
        <ele>32.34</ele>
        <time>2016-07-17T09:19:58Z</time>
      </trkpt>
      <trkpt lat="50.71289" lon="3.75882">
        <ele>32.34</ele>
        <time>2016-07-17T09:20:06Z</time>
      </trkpt>
      <trkpt lat="50.71289" lon="3.7588">
        <ele>32.34</ele>
        <time>2016-07-17T09:20:07Z</time>
      </trkpt>
      <trkpt lat="50.7129" lon="3.75863">
        <ele>31.38</ele>
        <time>2016-07-17T09:20:14Z</time>
      </trkpt>
      <trkpt lat="50.7129" lon="3.75857">
        <ele>32.82</ele>
        <time>2016-07-17T09:20:16Z</time>
      </trkpt>
      <trkpt lat="50.71288" lon="3.75843">
        <ele>31.38</ele>
        <time>2016-07-17T09:20:22Z</time>
      </trkpt>
      <trkpt lat="50.71285" lon="3.75818">
        <ele>33.3</ele>
        <time>2016-07-17T09:20:32Z</time>
      </trkpt>
      <trkpt lat="50.71283" lon="3.75808">
        <ele>33.3</ele>
        <time>2016-07-17T09:20:37Z</time>
      </trkpt>
      <trkpt lat="50.71283" lon="3.75805">
        <ele>33.3</ele>
        <time>2016-07-17T09:20:38Z</time>
      </trkpt>
      <trkpt lat="50.71283" lon="3.75803">
        <ele>33.3</ele>
        <time>2016-07-17T09:20:39Z</time>
      </trkpt>
      <trkpt lat="50.71283" lon="3.75801">
        <ele>33.3</ele>
        <time>2016-07-17T09:20:40Z</time>
      </trkpt>
      <trkpt lat="50.71284" lon="3.75799">
        <ele>33.3</ele>
        <time>2016-07-17T09:20:41Z</time>
      </trkpt>
      <trkpt lat="50.71284" lon="3.75797">
        <ele>33.3</ele>
        <time>2016-07-17T09:20:42Z</time>
      </trkpt>
      <trkpt lat="50.71285" lon="3.75795">
        <ele>33.78</ele>
        <time>2016-07-17T09:20:43Z</time>
      </trkpt>
      <trkpt lat="50.71286" lon="3.75793">
        <ele>33.78</ele>
        <time>2016-07-17T09:20:44Z</time>
      </trkpt>
      <trkpt lat="50.71287" lon="3.75792">
        <ele>33.78</ele>
        <time>2016-07-17T09:20:45Z</time>
      </trkpt>
      <trkpt lat="50.71288" lon="3.75791">
        <ele>33.78</ele>
        <time>2016-07-17T09:20:46Z</time>
      </trkpt>
      <trkpt lat="50.7129" lon="3.75791">
        <ele>33.78</ele>
        <time>2016-07-17T09:20:47Z</time>
      </trkpt>
      <trkpt lat="50.71291" lon="3.75791">
        <ele>33.78</ele>
        <time>2016-07-17T09:20:48Z</time>
      </trkpt>
      <trkpt lat="50.71304" lon="3.75797">
        <ele>32.82</ele>
        <time>2016-07-17T09:20:57Z</time>
      </trkpt>
      <trkpt lat="50.71309" lon="3.75801">
        <ele>34.26</ele>
        <time>2016-07-17T09:21:01Z</time>
      </trkpt>
      <trkpt lat="50.71327" lon="3.75827">
        <ele>33.3</ele>
        <time>2016-07-17T09:21:18Z</time>
      </trkpt>
      <trkpt lat="50.71346" lon="3.75848">
        <ele>33.3</ele>
        <time>2016-07-17T09:21:36Z</time>
      </trkpt>
      <trkpt lat="50.71347" lon="3.75849">
        <ele>33.3</ele>
        <time>2016-07-17T09:21:37Z</time>
      </trkpt>
      <trkpt lat="50.71348" lon="3.7585">
        <ele>32.82</ele>
        <time>2016-07-17T09:21:38Z</time>
      </trkpt>
      <trkpt lat="50.71354" lon="3.75857">
        <ele>34.26</ele>
        <time>2016-07-17T09:21:43Z</time>
      </trkpt>
      <trkpt lat="50.71363" lon="3.75868">
        <ele>32.82</ele>
        <time>2016-07-17T09:21:51Z</time>
      </trkpt>
      <trkpt lat="50.71367" lon="3.75873">
        <ele>34.74</ele>
        <time>2016-07-17T09:21:54Z</time>
      </trkpt>
      <trkpt lat="50.7137" lon="3.75876">
        <ele>34.74</ele>
        <time>2016-07-17T09:22:08Z</time>
      </trkpt>
      <trkpt lat="50.71381" lon="3.7589">
        <ele>34.74</ele>
        <time>2016-07-17T09:22:28Z</time>
      </trkpt>
      <trkpt lat="50.71405" lon="3.75908">
        <ele>35.23</ele>
        <time>2016-07-17T09:22:46Z</time>
      </trkpt>
      <trkpt lat="50.71431" lon="3.75902">
        <ele>35.71</ele>
        <time>2016-07-17T09:23:06Z</time>
      </trkpt>
      <trkpt lat="50.71462" lon="3.75888">
        <ele>36.67</ele>
        <time>2016-07-17T09:23:27Z</time>
      </trkpt>
      <trkpt lat="50.7149" lon="3.7587">
        <ele>38.11</ele>
        <time>2016-07-17T09:23:48Z</time>
      </trkpt>
      <trkpt lat="50.71491" lon="3.75869">
        <ele>38.11</ele>
        <time>2016-07-17T09:23:49Z</time>
      </trkpt>
      <trkpt lat="50.71525" lon="3.75844">
        <ele>40.03</ele>
        <time>2016-07-17T09:24:13Z</time>
      </trkpt>
      <trkpt lat="50.71535" lon="3.75828">
        <ele>41.95</ele>
        <time>2016-07-17T09:24:25Z</time>
      </trkpt>
      <trkpt lat="50.71552" lon="3.758">
        <ele>42.92</ele>
        <time>2016-07-17T09:24:43Z</time>
      </trkpt>
      <trkpt lat="50.71561" lon="3.75789">
        <ele>41.95</ele>
        <time>2016-07-17T09:24:51Z</time>
      </trkpt>
      <trkpt lat="50.71568" lon="3.75778">
        <ele>42.92</ele>
        <time>2016-07-17T09:24:57Z</time>
      </trkpt>
      <trkpt lat="50.71573" lon="3.75768">
        <ele>41.47</ele>
        <time>2016-07-17T09:25:02Z</time>
      </trkpt>
      <trkpt lat="50.71595" lon="3.75734">
        <ele>39.07</ele>
        <time>2016-07-17T09:25:22Z</time>
      </trkpt>
      <trkpt lat="50.716" lon="3.75723">
        <ele>39.55</ele>
        <time>2016-07-17T09:25:29Z</time>
      </trkpt>
      <trkpt lat="50.71601" lon="3.75721">
        <ele>39.55</ele>
        <time>2016-07-17T09:25:30Z</time>
      </trkpt>
      <trkpt lat="50.71602" lon="3.75719">
        <ele>39.55</ele>
        <time>2016-07-17T09:25:31Z</time>
      </trkpt>
      <trkpt lat="50.71607" lon="3.75712">
        <ele>37.63</ele>
        <time>2016-07-17T09:25:35Z</time>
      </trkpt>
      <trkpt lat="50.71623" lon="3.75691">
        <ele>36.19</ele>
        <time>2016-07-17T09:25:48Z</time>
      </trkpt>
      <trkpt lat="50.71646" lon="3.75678">
        <ele>35.71</ele>
        <time>2016-07-17T09:26:05Z</time>
      </trkpt>
      <trkpt lat="50.71673" lon="3.75685">
        <ele>34.26</ele>
        <time>2016-07-17T09:26:24Z</time>
      </trkpt>
      <trkpt lat="50.71679" lon="3.75688">
        <ele>33.78</ele>
        <time>2016-07-17T09:26:29Z</time>
      </trkpt>
      <trkpt lat="50.71681" lon="3.75689">
        <ele>33.78</ele>
        <time>2016-07-17T09:26:30Z</time>
      </trkpt>
      <trkpt lat="50.71711" lon="3.75705">
        <ele>33.3</ele>
        <time>2016-07-17T09:26:49Z</time>
      </trkpt>
      <trkpt lat="50.71734" lon="3.75718">
        <ele>31.86</ele>
        <time>2016-07-17T09:27:08Z</time>
      </trkpt>
      <trkpt lat="50.71759" lon="3.75735">
        <ele>31.38</ele>
        <time>2016-07-17T09:27:25Z</time>
      </trkpt>
      <trkpt lat="50.71777" lon="3.75741">
        <ele>31.38</ele>
        <time>2016-07-17T09:27:38Z</time>
      </trkpt>
      <trkpt lat="50.71802" lon="3.75751">
        <ele>29.46</ele>
        <time>2016-07-17T09:27:56Z</time>
      </trkpt>
      <trkpt lat="50.71828" lon="3.75755">
        <ele>28.02</ele>
        <time>2016-07-17T09:28:14Z</time>
      </trkpt>
      <trkpt lat="50.71833" lon="3.75747">
        <ele>29.46</ele>
        <time>2016-07-17T09:28:18Z</time>
      </trkpt>
      <trkpt lat="50.71837" lon="3.75735">
        <ele>28.02</ele>
        <time>2016-07-17T09:28:24Z</time>
      </trkpt>
      <trkpt lat="50.71838" lon="3.75698">
        <ele>28.98</ele>
        <time>2016-07-17T09:28:41Z</time>
      </trkpt>
      <trkpt lat="50.71843" lon="3.75655">
        <ele>28.98</ele>
        <time>2016-07-17T09:28:58Z</time>
      </trkpt>
      <trkpt lat="50.71845" lon="3.75622">
        <ele>30.42</ele>
        <time>2016-07-17T09:29:14Z</time>
      </trkpt>
      <trkpt lat="50.71846" lon="3.75604">
        <ele>28.98</ele>
        <time>2016-07-17T09:29:21Z</time>
      </trkpt>
      <trkpt lat="50.71845" lon="3.75562">
        <ele>29.94</ele>
        <time>2016-07-17T09:29:38Z</time>
      </trkpt>
      <trkpt lat="50.71844" lon="3.75549">
        <ele>28.5</ele>
        <time>2016-07-17T09:29:45Z</time>
      </trkpt>
      <trkpt lat="50.71844" lon="3.75517">
        <ele>29.94</ele>
        <time>2016-07-17T09:29:58Z</time>
      </trkpt>
      <trkpt lat="50.71844" lon="3.75496">
        <ele>29.94</ele>
        <time>2016-07-17T09:30:06Z</time>
      </trkpt>
      <trkpt lat="50.71844" lon="3.75479">
        <ele>28.5</ele>
        <time>2016-07-17T09:30:13Z</time>
      </trkpt>
      <trkpt lat="50.71843" lon="3.75453">
        <ele>28.98</ele>
        <time>2016-07-17T09:30:25Z</time>
      </trkpt>
      <trkpt lat="50.71843" lon="3.75451">
        <ele>28.98</ele>
        <time>2016-07-17T09:30:26Z</time>
      </trkpt>
      <trkpt lat="50.71837" lon="3.75422">
        <ele>30.42</ele>
        <time>2016-07-17T09:30:41Z</time>
      </trkpt>
      <trkpt lat="50.71835" lon="3.75407">
        <ele>28.98</ele>
        <time>2016-07-17T09:30:48Z</time>
      </trkpt>
      <trkpt lat="50.71833" lon="3.7537">
        <ele>30.42</ele>
        <time>2016-07-17T09:31:05Z</time>
      </trkpt>
      <trkpt lat="50.71834" lon="3.75364">
        <ele>29.46</ele>
        <time>2016-07-17T09:31:08Z</time>
      </trkpt>
      <trkpt lat="50.71837" lon="3.7535">
        <ele>29.46</ele>
        <time>2016-07-17T09:31:14Z</time>
      </trkpt>
      <trkpt lat="50.71841" lon="3.75311">
        <ele>28.98</ele>
        <time>2016-07-17T09:31:30Z</time>
      </trkpt>
      <trkpt lat="50.71842" lon="3.75282">
        <ele>29.94</ele>
        <time>2016-07-17T09:31:42Z</time>
      </trkpt>
      <trkpt lat="50.71841" lon="3.75273">
        <ele>30.42</ele>
        <time>2016-07-17T09:31:46Z</time>
      </trkpt>
      <trkpt lat="50.71842" lon="3.7527">
        <ele>30.42</ele>
        <time>2016-07-17T09:31:47Z</time>
      </trkpt>
      <trkpt lat="50.71844" lon="3.75241">
        <ele>28.98</ele>
        <time>2016-07-17T09:32:02Z</time>
      </trkpt>
      <trkpt lat="50.71846" lon="3.7521">
        <ele>29.46</ele>
        <time>2016-07-17T09:32:15Z</time>
      </trkpt>
      <trkpt lat="50.71851" lon="3.75167">
        <ele>31.38</ele>
        <time>2016-07-17T09:32:33Z</time>
      </trkpt>
      <trkpt lat="50.71853" lon="3.7516">
        <ele>29.94</ele>
        <time>2016-07-17T09:32:37Z</time>
      </trkpt>
      <trkpt lat="50.71863" lon="3.75131">
        <ele>30.9</ele>
        <time>2016-07-17T09:32:52Z</time>
      </trkpt>
      <trkpt lat="50.71866" lon="3.7512">
        <ele>29.46</ele>
        <time>2016-07-17T09:32:57Z</time>
      </trkpt>
      <trkpt lat="50.71872" lon="3.75107">
        <ele>30.9</ele>
        <time>2016-07-17T09:33:04Z</time>
      </trkpt>
      <trkpt lat="50.71873" lon="3.75103">
        <ele>29.94</ele>
        <time>2016-07-17T09:33:06Z</time>
      </trkpt>
      <trkpt lat="50.71873" lon="3.75082">
        <ele>28.98</ele>
        <time>2016-07-17T09:33:16Z</time>
      </trkpt>
      <trkpt lat="50.71872" lon="3.7508">
        <ele>30.42</ele>
        <time>2016-07-17T09:33:17Z</time>
      </trkpt>
      <trkpt lat="50.71868" lon="3.75072">
        <ele>29.94</ele>
        <time>2016-07-17T09:33:23Z</time>
      </trkpt>
      <trkpt lat="50.71868" lon="3.7507">
        <ele>29.94</ele>
        <time>2016-07-17T09:33:24Z</time>
      </trkpt>
      <trkpt lat="50.71864" lon="3.75052">
        <ele>29.94</ele>
        <time>2016-07-17T09:33:42Z</time>
      </trkpt>
      <trkpt lat="50.71861" lon="3.7505">
        <ele>31.86</ele>
        <time>2016-07-17T09:34:06Z</time>
      </trkpt>
    </trkseg>
  </trk>
</gpx>